
Distance (Route):
Temperature : -48.6°C
Humidity : 44.2%
Pressure : 274.5hPa| Receiver | Frames | First received | Last received |
|---|---|---|---|
| DL1XH-west | 311 | 2026-09-01 00:10:04 | 2026-09-01 01:05:22 |
| DM0DOS-11 | 160 | 2026-09-01 00:18:19 | 2026-09-01 01:02:38 |
| DJ2DS-15 | 76 | 2026-09-01 00:04:56 | 2026-09-01 01:06:52 |
| BIOWL1-15 | 22 | 2026-09-01 00:37:25 | 2026-09-01 01:01:19 |
| GOEST3-10 | 19 | 2026-09-01 00:52:15 | 2026-09-01 00:59:24 |
| HTAHTA | 12 | 2026-09-01 00:38:54 | 2026-09-01 00:57:32 |
| BIOWL9-15 | 2 | 2026-09-01 00:41:47 | 2026-09-01 00:42:49 |
| Receiver | Date | Latitude | Longitude | Direction | Speed | Altitude | Climb | Temperature | Humidity | Pressure | Voltage | Killtimer | Uptime | BKT | XDATA |
|---|---|---|---|---|---|---|---|---|---|---|---|---|---|---|---|
| DJ2DS-15 | 2026-09-01 01:06:52 | 56.55783 | 4.14270 | 89° | 46km/h | 9870m | -21.8m/s | -48.6°C | 44.2% | 274.5hPa | 2.4V | 00:00:00 | 00:00:00 | 00:00:00 | |
| DJ2DS-15 | 2026-09-01 01:06:38 | 56.55787 | 4.14000 | 93° | 53km/h | 10159m | -22.7m/s | -51.1°C | 58.5% | 262.5hPa | 2.4V | 00:00:00 | 02:14:20 | 00:00:00 | |
| DJ2DS-15 | 2026-09-01 01:06:18 | 56.55808 | 4.13524 | 95° | 64km/h | 10597m | -22.5m/s | -54.4°C | 59.6% | 245.2hPa | 2.4V | 00:00:00 | 02:14:00 | 00:00:00 | |
| DJ2DS-15 | 2026-09-01 01:06:15 | 56.55813 | 4.13440 | 94° | 60km/h | 10662m | -20.7m/s | -55.1°C | 50.6% | 242.8hPa | 2.4V | 00:00:00 | 00:00:00 | 00:00:00 | |
| DJ2DS-15 | 2026-09-01 01:05:58 | 56.55840 | 4.12942 | 96° | 68km/h | 11024m | -21.7m/s | -56.8°C | 39.4% | 229.3hPa | 2.4V | 00:00:00 | 02:13:40 | 00:00:00 | |
| DL1XH-west | 2026-09-01 01:05:22 | 56.55884 | 4.11843 | 97° | 75km/h | 11804m | -22.7m/s | -57.7°C | 11.9% | 202.6hPa | 2.3V | 08:24:37 | 02:13:04 | 00:00:00 | |
| DL1XH-west | 2026-09-01 01:05:10 | 56.55912 | 4.11507 | 101° | 49km/h | 12063m | -22m/s | -54.9°C | 3.7% | 194.5hPa | 2.4V | 08:24:37 | 02:12:52 | 00:00:00 | |
| DL1XH-west | 2026-09-01 01:04:59 | 56.55919 | 4.11282 | 89° | 47km/h | 12326m | -23.2m/s | -53°C | 1.7% | 186.7hPa | 2.3V | 08:24:37 | 02:12:41 | 00:00:00 | |
| DL1XH-west | 2026-09-01 01:04:48 | 56.55916 | 4.11040 | 87° | 40km/h | 12580m | -23.6m/s | -51.6°C | 1.4% | 179.4hPa | 2.5V | 08:25:28 | 02:12:30 | 00:00:00 | |
| DL1XH-west | 2026-09-01 01:04:38 | 56.55912 | 4.10816 | 89° | 51km/h | 12843m | -26.2m/s | -51.1°C | 1% | 172.4hPa | 2.5V | 08:25:28 | 02:12:19 | 00:00:00 | |
| DL1XH-west | 2026-09-01 01:04:27 | 56.55897 | 4.10583 | 81° | 53km/h | 13108m | -27.9m/s | -51°C | 1.1% | 165.5hPa | 2.4V | 08:25:28 | 02:12:09 | 00:00:00 | |
| DL1XH-west | 2026-09-01 01:04:17 | 56.55891 | 4.10335 | 95° | 53km/h | 13379m | -28m/s | -50.2°C | 0.6% | 158.7hPa | 2.4V | 08:25:28 | 02:11:59 | 00:00:00 | |
| DL1XH-west | 2026-09-01 01:04:07 | 56.55899 | 4.10128 | 86° | 42km/h | 13657m | -28.1m/s | -49.8°C | 0.4% | 152.1hPa | 2.5V | 08:25:28 | 02:11:49 | 00:00:00 | |
| DL1XH-west | 2026-09-01 01:03:57 | 56.55881 | 4.09924 | 82° | 49km/h | 13936m | -28.8m/s | -50.6°C | 0.5% | 145.7hPa | 2.5V | 08:26:19 | 02:11:39 | 00:00:00 | |
| DL1XH-west | 2026-09-01 01:03:46 | 56.55874 | 4.09678 | 92° | 46km/h | 14247m | -29m/s | -49°C | 0.3% | 139hPa | 2.5V | 08:26:19 | 02:11:28 | 00:00:00 | |
| DL1XH-west | 2026-09-01 01:03:35 | 56.55865 | 4.09457 | 82° | 40km/h | 14563m | -30.7m/s | -48.5°C | 0.2% | 132.4hPa | 2.4V | 08:26:19 | 02:11:17 | 00:00:00 | |
| DL1XH-west | 2026-09-01 01:03:25 | 56.55836 | 4.09299 | 68° | 37km/h | 14869m | -30.6m/s | -48.7°C | 0.2% | 126.4hPa | 2.4V | 08:26:19 | 02:11:07 | 00:00:00 | |
| DL1XH-west | 2026-09-01 01:03:15 | 56.55790 | 4.09122 | 61° | 35km/h | 15206m | -29.8m/s | -49.6°C | 0.4% | 120hPa | 2.4V | 08:26:19 | 02:10:56 | 00:00:00 | |
| DL1XH-west | 2026-09-01 01:03:04 | 56.55750 | 4.08975 | 69° | 44km/h | 15503m | -30.2m/s | -48.3°C | 0.1% | 114.7hPa | 2.4V | 08:27:10 | 02:10:46 | 00:00:00 | |
| DL1XH-west | 2026-09-01 01:02:54 | 56.55718 | 4.08759 | 69° | 38km/h | 15823m | -31.5m/s | -47.9°C | 0.1% | 109.3hPa | 2.4V | 08:27:10 | 02:10:35 | 00:00:00 | |
| DL1XH-west | 2026-09-01 01:02:43 | 56.55679 | 4.08579 | 65° | 38km/h | 16185m | -33.5m/s | -48.5°C | 0.1% | 103.4hPa | 2.5V | 08:27:10 | 02:10:24 | 00:00:00 | |
| DJ2DS-15 | 2026-09-01 01:02:39 | 56.55667 | 4.08532 | 65° | 35km/h | 16282m | -32.7m/s | -49.0°C | 1.0% | 101.9hPa | 2.4V | 00:00:00 | 00:00:00 | 00:00:00 | |
| DM0DOS-11 | 2026-09-01 01:02:38 | 56.55657 | 4.08485 | 74° | 35km/h | 16379m | -32.9m/s | -49°C | 3.5% | 100.4hPa | 2.4V | 08:26:55 | 02:10:18 | 00:00:00 | |
| DL1XH-west | 2026-09-01 01:02:32 | 56.55651 | 4.08426 | 83° | 31km/h | 16514m | -35.1m/s | -48.2°C | 0.1% | 98.4hPa | 2.5V | 08:27:10 | 02:10:14 | 00:00:00 | |
| DM0DOS-11 | 2026-09-01 01:02:27 | 56.55637 | 4.08340 | 69° | 29km/h | 16751m | -34.1m/s | -48.3°C | 3.2% | 94.9hPa | 2.4V | 08:27:06 | 02:10:07 | 00:00:00 | |
| DL1XH-west | 2026-09-01 01:02:22 | 56.55629 | 4.08299 | 69° | 35km/h | 16848m | -33.4m/s | -48.4°C | 0.1% | 93.5hPa | 2.5V | 08:27:10 | 02:10:04 | 00:00:00 | |
| DJ2DS-15 | 2026-09-01 01:02:18 | 56.55615 | 4.08232 | 65° | 38km/h | 16984m | -34.2m/s | -47.7°C | 3.1% | 91.6hPa | 2.5V | 00:00:00 | 02:10:00 | 00:00:00 | |
| DM0DOS-11 | 2026-09-01 01:02:16 | 56.55600 | 4.08180 | 59° | 44km/h | 17087m | -36.7m/s | -47.9°C | 3.1% | 90.1hPa | 2.5V | 08:27:16 | 02:09:57 | 00:00:00 | |
| DL1XH-west | 2026-09-01 01:02:12 | 56.55586 | 4.08126 | 67° | 42km/h | 17196m | -36.2m/s | -48.4°C | 0.2% | 88.7hPa | 2.4V | 08:28:01 | 02:09:54 | 00:00:00 | |
| DM0DOS-11 | 2026-09-01 01:02:10 | 56.55565 | 4.08006 | 76° | 35km/h | 17439m | -34.8m/s | -49.1°C | 3.5% | 85.5hPa | 2.5V | 08:27:26 | 02:09:47 | 00:00:00 | |
| DL1XH-west | 2026-09-01 01:02:01 | 56.55555 | 4.07949 | 72° | 31km/h | 17574m | -34.2m/s | -49.1°C | 0.3% | 83.7hPa | 2.5V | 08:28:01 | 02:09:43 | 00:00:00 | |
| DM0DOS-11 | 2026-09-01 01:02:00 | 56.55542 | 4.07880 | 66° | 20km/h | 17780m | -36.5m/s | -47.9°C | 3.2% | 81.2hPa | 2.5V | 08:27:36 | 02:09:37 | 00:00:00 | |
| DL1XH-west | 2026-09-01 01:01:50 | 56.55529 | 4.07837 | 57° | 24km/h | 17962m | -36.5m/s | -47.8°C | 0.1% | 78.9hPa | 2.5V | 08:28:01 | 02:09:32 | 00:00:00 | |
| DL1XH-west | 2026-09-01 01:01:40 | 56.55489 | 4.07750 | 45° | 29km/h | 18326m | -37.6m/s | -48.2°C | 0.1% | 74.6hPa | 2.5V | 08:28:01 | 02:09:22 | 00:00:00 | |
| DJ2DS-15 | 2026-09-01 01:01:38 | 56.55477 | 4.07730 | 44° | 37km/h | 18402m | -38.5m/s | -48.1°C | 3.3% | 73.8hPa | 2.5V | 00:00:00 | 02:09:20 | 00:00:00 | |
| DM0DOS-11 | 2026-09-01 01:01:35 | 56.55447 | 4.07678 | 41° | 35km/h | 18588m | -36.6m/s | -47.2°C | 3.1% | 71.8hPa | 2.5V | 08:27:58 | 02:09:15 | 00:00:00 | |
| DL1XH-west | 2026-09-01 01:01:30 | 56.55418 | 4.07632 | 44° | 42km/h | 18731m | -37.3m/s | -47.5°C | 0% | 70.2hPa | 2.5V | 08:28:52 | 02:09:11 | 00:00:00 | |
| BIOWL1-15 | 2026-09-01 01:01:19 | 56.55356 | 4.07443 | 52° | 29km/h | 19281m | -38.6m/s | 0°C | 0% | 0hPa | 2.4V | 18:12:15 | 02:08:57 | 00:00:00 | |
| DL1XH-west | 2026-09-01 01:01:18 | 56.55367 | 4.07477 | 60° | 31km/h | 19166m | -38.6m/s | -47.6°C | 0% | 65.7hPa | 2.5V | 08:28:52 | 02:09:00 | 00:00:00 | |
| DJ2DS-15 | 2026-09-01 01:01:18 | 56.55367 | 4.07477 | 60° | 27km/h | 19166m | -38.5m/s | -47.5°C | 3.0% | 65.7hPa | 2.4V | 00:00:00 | 02:09:00 | 00:00:00 | |
| DM0DOS-11 | 2026-09-01 01:01:15 | 56.55340 | 4.07410 | 50° | 33km/h | 19394m | -38.9m/s | -48.3°C | 3.2% | 63.5hPa | 2.4V | 08:28:19 | 02:08:54 | 00:00:00 | |
| DL1XH-west | 2026-09-01 01:01:08 | 56.55317 | 4.07351 | 58° | 29km/h | 19593m | -41.5m/s | -49.2°C | 0.2% | 61.6hPa | 2.4V | 08:28:52 | 02:08:49 | 00:00:00 | |
| DL1XH-west | 2026-09-01 01:00:57 | 56.55285 | 4.07253 | 61° | 27km/h | 19997m | -40.7m/s | -49.3°C | 0.3% | 57.9hPa | 2.4V | 08:28:52 | 02:08:39 | 00:00:00 | |
| DM0DOS-11 | 2026-09-01 01:00:55 | 56.55267 | 4.07169 | 75° | 26km/h | 20293m | -43.3m/s | -49°C | 3.3% | 55.3hPa | 2.4V | 08:28:41 | 02:08:32 | 00:00:00 | |
| DL1XH-west | 2026-09-01 01:00:46 | 56.55260 | 4.07127 | 69° | 24km/h | 20467m | -44.4m/s | -49.2°C | 0.2% | 53.9hPa | 2.4V | 08:28:52 | 02:08:28 | 00:00:00 | |
| DL1XH-west | 2026-09-01 01:00:36 | 56.55246 | 4.07003 | 82° | 26km/h | 20964m | -45.5m/s | -49.8°C | 0.3% | 49.9hPa | 2.4V | 08:29:43 | 02:08:17 | 00:00:00 | |
| DM0DOS-11 | 2026-09-01 01:00:34 | 56.55245 | 4.06955 | 91° | 16km/h | 21191m | -45m/s | -50.3°C | 3.6% | 48.2hPa | 2.4V | 08:30:00 | 02:08:12 | 00:00:00 | |
| DL1XH-west | 2026-09-01 01:00:25 | 56.55242 | 4.06931 | 31° | 5km/h | 21455m | -46.6m/s | -50.4°C | 0.4% | 46.3hPa | 2.5V | 08:29:43 | 02:08:06 | 00:00:00 | |
| DM0DOS-11 | 2026-09-01 01:00:18 | 56.55228 | 4.06905 | 61° | 13km/h | 21987m | -49m/s | -50.9°C | 3.8% | 42.6hPa | 2.5V | 08:30:00 | 02:07:55 | 00:00:00 | |
| DL1XH-west | 2026-09-01 01:00:14 | 56.55228 | 4.06905 | 62° | 13km/h | 21987m | -49m/s | -50.9°C | 0.6% | 42.6hPa | 2.5V | 08:29:43 | 02:07:55 | 00:00:00 | |
| DL1XH-west | 2026-09-01 01:00:02 | 56.55218 | 4.06862 | 23° | 7km/h | 22524m | -51.1m/s | -50.2°C | 0.5% | 39.2hPa | 2.4V | 08:29:43 | 02:07:44 | 00:00:00 | |
| DM0DOS-11 | 2026-09-01 00:59:57 | 56.55198 | 4.06844 | 26° | 11km/h | 22929m | -51.1m/s | -50°C | 3.7% | 36.8hPa | 2.5V | 08:30:00 | 02:07:36 | 00:00:00 | |
| DL1XH-west | 2026-09-01 00:59:52 | 56.55191 | 4.06837 | 21° | 9km/h | 23079m | -51.6m/s | -50.1°C | 0.4% | 36hPa | 2.4V | 08:29:43 | 02:07:33 | 00:00:00 | |
| DL1XH-west | 2026-09-01 00:59:41 | 56.55167 | 4.06841 | 5° | 11km/h | 23664m | -56.6m/s | -48.9°C | 0.2% | 32.9hPa | 2.4V | 18:12:15 | 02:07:22 | 00:00:00 | |
| DL1XH-west | 2026-09-01 00:59:30 | 56.55143 | 4.06813 | 46° | 13km/h | 24216m | -53.6m/s | -49.3°C | 0.2% | 30.2hPa | 2.4V | 18:12:15 | 02:07:12 | 00:00:00 | |
| GOEST3-10 | 2026-09-01 00:59:24 | 56.55136 | 4.06777 | 86° | 15km/h | 24535m | -51.6m/s | -49.4°C | 3.4% | 28.7hPa | 2.4V | 00:00:00 | 02:07:06 | 00:00:00 | |
| DM0DOS-11 | 2026-09-01 00:59:20 | 56.55146 | 4.06737 | 165° | 9km/h | 24891m | -50m/s | -49.4°C | 3.3% | 27.2hPa | 2.4V | 08:30:00 | 02:06:59 | 00:00:00 | |
| DL1XH-west | 2026-09-01 00:59:20 | 56.55144 | 4.06739 | 147° | 11km/h | 24842m | -50m/s | -49.2°C | 0.2% | 27.4hPa | 2.5V | 18:12:15 | 02:07:00 | 00:00:00 | |
| DJ2DS-15 | 2026-09-01 00:59:18 | 56.55144 | 4.06739 | 148° | 9km/h | 24842m | -49.9m/s | -49.2°C | 3.2% | 27.4hPa | 2.4V | 00:00:00 | 02:07:00 | 00:00:00 | |
| GOEST3-10 | 2026-09-01 00:59:17 | 56.55146 | 4.06737 | 166° | 9km/h | 24891m | -49.9m/s | -49.4°C | 3.3% | 27.2hPa | 2.4V | 00:00:00 | 00:00:00 | 00:00:00 | |
| GOEST3-10 | 2026-09-01 00:59:12 | 56.55157 | 4.06743 | 200° | 11km/h | 25130m | -45.8m/s | -49.4°C | 3.1% | 26.2hPa | 2.4V | 00:00:00 | 02:06:54 | 00:00:00 | |
| DM0DOS-11 | 2026-09-01 00:59:10 | 56.55175 | 4.06750 | 218° | 9km/h | 25373m | -20.8m/s | -50.9°C | 3.6% | 25.2hPa | 2.4V | 08:30:00 | 02:06:47 | 00:00:00 | |
| DL1XH-west | 2026-09-01 00:59:08 | 56.55168 | 4.06747 | 183° | 11km/h | 25292m | -33.5m/s | -50.4°C | 0.3% | 25.5hPa | 2.5V | 18:12:15 | 02:06:50 | 00:00:00 | |
| DL1XH-west | 2026-09-01 00:58:57 | 56.55192 | 4.06767 | 170° | 13km/h | 25384m | 6.1m/s | -50.9°C | 0.6% | 25.1hPa | 2.4V | 18:12:15 | 02:06:39 | 00:00:00 | |
| DL1XH-west | 2026-09-01 00:58:46 | 56.55214 | 4.06759 | 184° | 15km/h | 25326m | 4.7m/s | -50.8°C | 0.5% | 25.4hPa | 2.4V | 18:12:15 | 02:06:28 | 00:00:00 | |
| DM0DOS-11 | 2026-09-01 00:58:45 | 56.55230 | 4.06755 | 168° | 5km/h | 25301m | 5m/s | -50.6°C | 3.7% | 25.5hPa | 2.4V | 08:30:00 | 02:06:23 | 00:00:00 | |
| DL1XH-west | 2026-09-01 00:58:36 | 56.55232 | 4.06764 | 299° | 5km/h | 25276m | 4.5m/s | -50.5°C | 0.4% | 25.6hPa | 2.4V | 18:12:15 | 02:06:18 | 00:00:00 | |
| DL1XH-west | 2026-09-01 00:58:26 | 56.55248 | 4.06787 | 245° | 9km/h | 25226m | 4.5m/s | -50.3°C | 0.4% | 25.8hPa | 2.4V | 18:12:15 | 02:06:08 | 00:00:00 | |
| GOEST3-10 | 2026-09-01 00:58:26 | 56.55247 | 4.06787 | 245° | 5km/h | 25226m | 4.5m/s | -50.2°C | 3.7% | 25.7hPa | 2.5V | 00:00:00 | 00:00:00 | 00:00:00 | |
| DM0DOS-11 | 2026-09-01 00:58:24 | 56.55249 | 4.06795 | 290° | 2km/h | 25211m | 5.1m/s | -50.1°C | 3.6% | 25.8hPa | 2.5V | 08:30:00 | 02:06:05 | 00:00:00 | |
| DL1XH-west | 2026-09-01 00:58:15 | 56.55254 | 4.06820 | 232° | 9km/h | 25171m | 4.4m/s | -50°C | 0.4% | 26hPa | 2.4V | 18:12:15 | 02:05:57 | 00:00:00 | |
| DL1XH-west | 2026-09-01 00:58:05 | 56.55270 | 4.06847 | 270° | 4km/h | 25114m | 5.4m/s | -50.3°C | 0.3% | 26.2hPa | 2.5V | 18:12:15 | 02:05:46 | 00:00:00 | |
| DL1XH-west | 2026-09-01 00:57:54 | 56.55293 | 4.06886 | 209° | 13km/h | 25060m | 4.8m/s | -50.6°C | 0.4% | 26.4hPa | 2.5V | 18:12:15 | 02:05:35 | 00:00:00 | |
| DL1XH-west | 2026-09-01 00:57:43 | 56.55319 | 4.06896 | 185° | 16km/h | 25004m | 5.4m/s | -50.5°C | 0.4% | 26.6hPa | 2.4V | 18:12:15 | 02:05:24 | 00:00:00 | |
| DL1XH-west | 2026-09-01 00:57:32 | 56.55354 | 4.06864 | 146° | 15km/h | 24955m | 5.7m/s | -50.3°C | 0.4% | 26.9hPa | 2.4V | 18:12:15 | 02:05:14 | 00:00:00 | |
| HTAHTA | 2026-09-01 00:57:32 | 56.55354 | 4.06864 | 146° | 13km/h | 24955m | 5.7m/s | -50.3°C | 0.9% | 26.9hPa | 2.4V | 00:00:00 | 00:00:00 | 00:00:00 | |
| GOEST3-10 | 2026-09-01 00:57:31 | 56.55357 | 4.06861 | 147° | 15km/h | 24950m | 4.6m/s | -50.2°C | 3.6% | 26.8hPa | 2.4V | 00:00:00 | 02:05:13 | 08:30:00 | |
| GOEST3-10 | 2026-09-01 00:57:26 | 56.55376 | 4.06849 | 152° | 24km/h | 24925m | 5.0m/s | -50.2°C | 3.6% | 26.9hPa | 2.5V | 00:00:00 | 00:00:00 | 00:00:00 | |
| DM0DOS-11 | 2026-09-01 00:57:25 | 56.55385 | 4.06836 | 133° | 26km/h | 24915m | 4.8m/s | -50.2°C | 3.6% | 27hPa | 2.5V | 08:30:00 | 02:05:06 | 00:00:00 | |
| DL1XH-west | 2026-09-01 00:57:21 | 56.55397 | 4.06811 | 125° | 24km/h | 24901m | 4.2m/s | -50.1°C | 0.4% | 27.1hPa | 2.4V | 18:12:15 | 02:05:03 | 00:00:00 | |
| GOEST3-10 | 2026-09-01 00:57:21 | 56.55397 | 4.06810 | 125° | 22km/h | 24901m | 4.1m/s | -50.1°C | 3.6% | 27.1hPa | 2.5V | 00:00:00 | 02:05:03 | 00:00:00 | |
| DJ2DS-15 | 2026-09-01 00:57:16 | 56.55410 | 4.06766 | 134° | 26km/h | 24877m | 4.5m/s | -50.0°C | 3.6% | 27.1hPa | 2.5V | 00:00:00 | 02:04:58 | 00:00:00 | |
| DM0DOS-11 | 2026-09-01 00:57:14 | 56.55422 | 4.06750 | 139° | 24km/h | 24863m | 5m/s | -50°C | 3.6% | 27.2hPa | 2.5V | 08:30:00 | 02:04:55 | 00:00:00 | |
| DL1XH-west | 2026-09-01 00:57:11 | 56.55430 | 4.06733 | 118° | 24km/h | 24854m | 4.3m/s | -49.9°C | 0.4% | 27.3hPa | 2.4V | 18:12:15 | 02:04:53 | 00:00:00 | |
| GOEST3-10 | 2026-09-01 00:57:11 | 56.55430 | 4.06733 | 118° | 24km/h | 24854m | 4.3m/s | -49.9°C | 3.6% | 27.2hPa | 2.5V | 00:00:00 | 02:04:53 | 00:00:00 | |
| DM0DOS-11 | 2026-09-01 00:57:09 | 56.55443 | 4.06643 | 110° | 27km/h | 24814m | 5.8m/s | -49.7°C | 3.5% | 27.4hPa | 2.5V | 08:30:00 | 02:04:45 | 00:00:00 | |
| DL1XH-west | 2026-09-01 00:57:00 | 56.55452 | 4.06613 | 123° | 26km/h | 24801m | 4.6m/s | -49.7°C | 0.3% | 27.5hPa | 2.4V | 18:12:15 | 02:04:42 | 00:00:00 | |
| DL1XH-west | 2026-09-01 00:56:49 | 56.55465 | 4.06472 | 99° | 26km/h | 24749m | 4.7m/s | -49.9°C | 0.3% | 27.7hPa | 2.5V | 18:12:15 | 02:04:31 | 00:00:00 | |
| DM0DOS-11 | 2026-09-01 00:56:47 | 56.55473 | 4.06412 | 98° | 29km/h | 24725m | 5.1m/s | -50°C | 3.5% | 27.8hPa | 2.5V | 08:30:00 | 02:04:26 | 00:00:00 | |
| DL1XH-west | 2026-09-01 00:56:39 | 56.55468 | 4.06343 | 77° | 33km/h | 24701m | 4.5m/s | -50.1°C | 0.3% | 28hPa | 2.5V | 18:12:15 | 02:04:21 | 00:00:00 | |
| GOEST3-10 | 2026-09-01 00:56:37 | 56.55464 | 4.06317 | 72° | 29km/h | 24692m | 4.7m/s | -50.1°C | 3.5% | 27.9hPa | 2.4V | 00:00:00 | 02:04:19 | 00:00:00 | |
| DJ2DS-15 | 2026-09-01 00:56:36 | 56.55462 | 4.06304 | 75° | 26km/h | 24688m | 3.6m/s | -50.1°C | 3.5% | 27.9hPa | 2.4V | 00:00:00 | 02:04:18 | 00:00:00 | |
| DM0DOS-11 | 2026-09-01 00:56:32 | 56.55456 | 4.06239 | 77° | 29km/h | 24664m | 4.9m/s | -50.2°C | 3.6% | 28.1hPa | 2.4V | 08:30:00 | 02:04:13 | 00:00:00 | |
| DL1XH-west | 2026-09-01 00:56:28 | 56.55449 | 4.06187 | 78° | 29km/h | 24646m | 4.1m/s | -50.3°C | 0.4% | 28.2hPa | 2.4V | 18:12:15 | 02:04:09 | 00:00:00 | |
| GOEST3-10 | 2026-09-01 00:56:27 | 56.55449 | 4.06187 | 78° | 26km/h | 24646m | 4.1m/s | -50.2°C | 3.6% | 28.1hPa | 2.4V | 00:00:00 | 02:04:09 | 00:00:00 | |
| DM0DOS-11 | 2026-09-01 00:56:22 | 56.55436 | 4.06105 | 64° | 20km/h | 24608m | 5m/s | -50.1°C | 3.5% | 28.3hPa | 2.5V | 08:30:00 | 02:04:01 | 00:00:00 | |
| DL1XH-west | 2026-09-01 00:56:17 | 56.55428 | 4.06079 | 65° | 24km/h | 24594m | 4.9m/s | -50.2°C | 0.3% | 28.4hPa | 2.4V | 18:12:15 | 02:03:58 | 00:00:00 | |
| DL1XH-west | 2026-09-01 00:56:07 | 56.55413 | 4.05986 | 69° | 15km/h | 24548m | 4.8m/s | -50.7°C | 0.5% | 28.6hPa | 2.4V | 18:12:15 | 02:03:48 | 00:00:00 | |
| DM0DOS-11 | 2026-09-01 00:56:06 | 56.55411 | 4.05980 | 57° | 13km/h | 24543m | 4.2m/s | -50.7°C | 3.7% | 28.6hPa | 2.4V | 08:30:00 | 02:03:47 | 00:00:00 | |
| DL1XH-west | 2026-09-01 00:55:56 | 56.55385 | 4.05919 | 54° | 13km/h | 24496m | 5.2m/s | -50.6°C | 0.4% | 28.9hPa | 2.4V | 18:12:15 | 02:03:37 | 00:00:00 | |
| DL1XH-west | 2026-09-01 00:55:44 | 56.55349 | 4.05877 | 45° | 13km/h | 24445m | 3.8m/s | -50.5°C | 0.4% | 29.1hPa | 2.5V | 18:12:15 | 02:03:26 | 00:00:00 | |
| DL1XH-west | 2026-09-01 00:55:34 | 56.55332 | 4.05858 | 28° | 11km/h | 24394m | 5.2m/s | -50.5°C | 0.4% | 29.3hPa | 2.5V | 18:12:15 | 02:03:15 | 00:00:00 | |
| DL1XH-west | 2026-09-01 00:55:22 | 56.55308 | 4.05836 | 9° | 13km/h | 24344m | 4.5m/s | -50.5°C | 0.4% | 29.5hPa | 2.4V | 18:12:15 | 02:03:04 | 00:00:00 | |
| DL1XH-west | 2026-09-01 00:55:12 | 56.55275 | 4.05823 | 16° | 13km/h | 24290m | 4.7m/s | -50.5°C | 0.4% | 29.8hPa | 2.4V | 18:12:15 | 02:02:53 | 00:00:00 | |
| DL1XH-west | 2026-09-01 00:55:00 | 56.55245 | 4.05795 | 57° | 15km/h | 24237m | 4.3m/s | -50.6°C | 0.4% | 30hPa | 2.4V | 18:12:15 | 02:02:42 | 00:00:00 | |
| DL1XH-west | 2026-09-01 00:54:50 | 56.55214 | 4.05766 | 355° | 13km/h | 24189m | 5.6m/s | -50.7°C | 0.5% | 30.2hPa | 2.4V | 18:12:15 | 02:02:32 | 00:00:00 | |
| DL1XH-west | 2026-09-01 00:54:40 | 56.55194 | 4.05771 | 339° | 11km/h | 24136m | 4.2m/s | -50.5°C | 0.4% | 30.5hPa | 2.5V | 18:12:15 | 02:02:21 | 00:00:00 | |
| DL1XH-west | 2026-09-01 00:54:29 | 56.55178 | 4.05771 | 19° | 9km/h | 24083m | 5.6m/s | -50.5°C | 0.5% | 30.8hPa | 2.5V | 18:12:15 | 02:02:10 | 00:00:00 | |
| GOEST3-10 | 2026-09-01 00:54:26 | 56.55172 | 4.05766 | 31° | 15km/h | 24074m | 3.9m/s | -50.4°C | 3.7% | 30.7hPa | 2.4V | 00:00:00 | 02:02:08 | 08:30:00 | |
| DM0DOS-11 | 2026-09-01 00:54:23 | 56.55155 | 4.05735 | 7° | 5km/h | 24035m | 4.5m/s | -50.4°C | 3.7% | 31hPa | 2.5V | 08:30:00 | 02:02:00 | 00:00:00 | |
| DL1XH-west | 2026-09-01 00:54:18 | 56.55154 | 4.05735 | 342° | 7km/h | 24031m | 3.7m/s | -50.3°C | 0.5% | 31hPa | 2.4V | 18:12:15 | 02:01:59 | 00:00:00 | |
| DL1XH-west | 2026-09-01 00:54:07 | 56.55117 | 4.05703 | 30° | 13km/h | 23979m | 5.2m/s | -50.1°C | 0.4% | 31.2hPa | 2.4V | 18:12:15 | 02:01:48 | 00:00:00 | |
| GOEST3-10 | 2026-09-01 00:54:06 | 56.55117 | 4.05703 | 30° | 11km/h | 23980m | 5.1m/s | -50.0°C | 3.6% | 31.2hPa | 2.4V | 00:00:00 | 02:01:48 | 00:00:00 | |
| DM0DOS-11 | 2026-09-01 00:54:04 | 56.55109 | 4.05693 | 27° | 13km/h | 23959m | 4.8m/s | -50°C | 3.6% | 31.3hPa | 2.4V | 08:30:00 | 02:01:44 | 00:00:00 | |
| DL1XH-west | 2026-09-01 00:53:55 | 56.55081 | 4.05679 | 6° | 18km/h | 23924m | 4.6m/s | -50.1°C | 0.4% | 31.5hPa | 2.4V | 18:12:15 | 02:01:37 | 00:00:00 | |
| DL1XH-west | 2026-09-01 00:53:46 | 56.55050 | 4.05663 | 14° | 15km/h | 23876m | 4.4m/s | -50°C | 0.4% | 31.7hPa | 2.4V | 18:12:15 | 02:01:27 | 00:00:00 | |
| GOEST3-10 | 2026-09-01 00:53:41 | 56.55032 | 4.05655 | 14° | 13km/h | 23856m | 5.3m/s | 0°C | 0% | 0hPa | 2.5V | 00:00:00 | 00:00:00 | 08:30:00 | |
| DM0DOS-11 | 2026-09-01 00:53:39 | 56.55011 | 4.05639 | 12° | 13km/h | 23823m | 4.5m/s | -50.2°C | 3.6% | 32hPa | 2.5V | 08:30:00 | 02:01:16 | 00:00:00 | |
| DL1XH-west | 2026-09-01 00:53:35 | 56.55014 | 4.05641 | 28° | 13km/h | 23828m | 5.2m/s | -50.2°C | 0.4% | 32hPa | 2.4V | 18:12:15 | 02:01:17 | 00:00:00 | |
| DJ2DS-15 | 2026-09-01 00:53:35 | 56.55014 | 4.05641 | 28° | 15km/h | 23828m | 5.1m/s | -50.2°C | 3.6% | 31.9hPa | 2.5V | 00:00:00 | 02:01:17 | 00:00:00 | |
| GOEST3-10 | 2026-09-01 00:53:31 | 56.54998 | 4.05640 | 353° | 22km/h | 23809m | 5.2m/s | 0°C | 0% | 0hPa | 2.5V | 00:00:00 | 00:00:00 | 00:00:00 | |
| DM0DOS-11 | 2026-09-01 00:53:28 | 56.54962 | 4.05646 | 16° | 11km/h | 23772m | 4.3m/s | -50.3°C | 3.6% | 32.3hPa | 2.5V | 08:30:00 | 02:01:05 | 00:00:00 | |
| DL1XH-west | 2026-09-01 00:53:25 | 56.54962 | 4.05646 | 16° | 11km/h | 23772m | 4.3m/s | -50.3°C | 0.4% | 32.3hPa | 2.5V | 18:12:15 | 02:01:05 | 00:00:00 | |
| DL1XH-west | 2026-09-01 00:53:14 | 56.54936 | 4.05658 | 328° | 18km/h | 23724m | 4.8m/s | -50°C | 0.4% | 32.5hPa | 2.5V | 18:12:15 | 02:00:55 | 00:00:00 | |
| DM0DOS-11 | 2026-09-01 00:53:12 | 56.54924 | 4.05668 | 336° | 15km/h | 23710m | 4.8m/s | -50°C | 3.6% | 32.6hPa | 2.4V | 08:30:00 | 02:00:52 | 00:00:00 | |
| DL1XH-west | 2026-09-01 00:53:03 | 56.54902 | 4.05687 | 328° | 15km/h | 23673m | 5m/s | -50°C | 0.4% | 32.8hPa | 2.4V | 18:12:15 | 02:00:44 | 00:00:00 | |
| DJ2DS-15 | 2026-09-01 00:53:02 | 56.54899 | 4.05691 | 321° | 15km/h | 23668m | 3.9m/s | -50.0°C | 0.9% | 32.8hPa | 2.4V | 00:00:00 | 00:00:00 | 00:00:00 | |
| DM0DOS-11 | 2026-09-01 00:53:01 | 56.54883 | 4.05719 | 297° | 16km/h | 23638m | 4.7m/s | -50.1°C | 3.5% | 32.9hPa | 2.4V | 08:30:00 | 02:00:37 | 00:00:00 | |
| DL1XH-west | 2026-09-01 00:52:52 | 56.54875 | 4.05740 | 300° | 9km/h | 23619m | 4.6m/s | -50.2°C | 0.4% | 33hPa | 2.4V | 18:12:15 | 02:00:33 | 00:00:00 | |
| GOEST3-10 | 2026-09-01 00:52:51 | 56.54875 | 4.05740 | 300° | 5km/h | 23619m | 4.6m/s | 0°C | 0% | 0hPa | 2.5V | 00:00:00 | 00:00:00 | 00:00:00 | |
| DM0DOS-11 | 2026-09-01 00:52:45 | 56.54874 | 4.05761 | 267° | 7km/h | 23579m | 4.4m/s | -50.1°C | 3.6% | 33.2hPa | 2.5V | 08:30:00 | 02:00:25 | 00:00:00 | |
| DL1XH-west | 2026-09-01 00:52:41 | 56.54874 | 4.05768 | 288° | 7km/h | 23570m | 5.7m/s | -50.1°C | 0.4% | 33.3hPa | 2.4V | 18:12:15 | 02:00:23 | 00:00:00 | |
| DL1XH-west | 2026-09-01 00:52:31 | 56.54854 | 4.05796 | 330° | 11km/h | 23515m | 3.6m/s | -50.1°C | 0.4% | 33.6hPa | 2.4V | 18:12:15 | 02:00:12 | 00:00:00 | |
| GOEST3-10 | 2026-09-01 00:52:30 | 56.54854 | 4.05796 | 330° | 11km/h | 23515m | 3.5m/s | 0°C | 0% | 0hPa | 2.5V | 00:00:00 | 00:00:00 | 00:00:00 | |
| GOEST3-10 | 2026-09-01 00:52:25 | 56.54841 | 4.05806 | 328° | 9km/h | 23492m | 5.5m/s | 0°C | 0% | 0hPa | 2.5V | 00:00:00 | 02:00:07 | 00:00:00 | |
| DM0DOS-11 | 2026-09-01 00:52:24 | 56.54831 | 4.05820 | 338° | 11km/h | 23461m | 5m/s | -50.2°C | 3.6% | 33.8hPa | 2.5V | 08:30:00 | 02:00:01 | 00:00:00 | |
| DL1XH-west | 2026-09-01 00:52:20 | 56.54830 | 4.05820 | 339° | 11km/h | 23461m | 5.1m/s | -50.3°C | 0.4% | 33.9hPa | 2.5V | 18:12:15 | 02:00:01 | 00:00:00 | |
| GOEST3-10 | 2026-09-01 00:52:20 | 56.54833 | 4.05819 | 344° | 11km/h | 23466m | 4.4m/s | 0°C | 0% | 0hPa | 2.5V | 00:00:00 | 00:00:00 | 00:00:00 | |
| GOEST3-10 | 2026-09-01 00:52:15 | 56.54818 | 4.05827 | 357° | 11km/h | 23442m | 4.6m/s | 0°C | 0% | 0hPa | 2.5V | 00:00:00 | 01:59:57 | 00:00:00 | |
| DM0DOS-11 | 2026-09-01 00:52:14 | 56.54801 | 4.05833 | 2° | 11km/h | 23412m | 5.4m/s | -50.4°C | 3.6% | 34.1hPa | 2.5V | 08:30:00 | 01:59:51 | 00:00:00 | |
| DL1XH-west | 2026-09-01 00:52:10 | 56.54796 | 4.05832 | 6° | 11km/h | 23402m | 4.9m/s | -50.4°C | 0.4% | 34.2hPa | 2.4V | 18:12:15 | 01:59:49 | 00:00:00 | |
| DL1XH-west | 2026-09-01 00:51:59 | 56.54774 | 4.05840 | 328° | 15km/h | 23361m | 4.9m/s | -50.7°C | 0.4% | 34.4hPa | 2.5V | 18:12:15 | 01:59:41 | 00:00:00 | |
| DL1XH-west | 2026-09-01 00:51:49 | 56.54752 | 4.05865 | 312° | 5km/h | 23312m | 5.6m/s | -50.7°C | 0.4% | 34.6hPa | 2.5V | 18:12:15 | 01:59:31 | 00:00:00 | |
| DL1XH-west | 2026-09-01 00:51:38 | 56.54745 | 4.05873 | 79° | 7km/h | 23258m | 5.1m/s | -50.9°C | 0.5% | 34.9hPa | 2.5V | 18:12:15 | 01:59:20 | 00:00:00 | |
| DL1XH-west | 2026-09-01 00:51:27 | 56.54750 | 4.05863 | 36° | 4km/h | 23204m | 5.1m/s | -51.1°C | 0.5% | 35.2hPa | 2.4V | 18:12:15 | 01:59:09 | 00:00:00 | |
| DL1XH-west | 2026-09-01 00:51:16 | 56.54740 | 4.05842 | 72° | 9km/h | 23150m | 5m/s | -51°C | 0.5% | 35.5hPa | 2.4V | 18:12:15 | 01:58:58 | 00:00:00 | |
| DL1XH-west | 2026-09-01 00:51:06 | 56.54732 | 4.05779 | 62° | 13km/h | 23100m | 5.1m/s | -51°C | 0.5% | 35.8hPa | 2.4V | 18:12:15 | 01:58:48 | 00:00:00 | |
| DL1XH-west | 2026-09-01 00:50:56 | 56.54703 | 4.05721 | 67° | 16km/h | 23051m | 4.3m/s | -51.1°C | 0.5% | 36.1hPa | 2.4V | 18:12:15 | 01:58:38 | 00:00:00 | |
| DL1XH-west | 2026-09-01 00:50:46 | 56.54682 | 4.05647 | 36° | 22km/h | 23004m | 4.6m/s | -51.1°C | 0.5% | 36.3hPa | 2.4V | 18:12:15 | 01:58:28 | 00:00:00 | |
| DL1XH-west | 2026-09-01 00:50:36 | 56.54651 | 4.05596 | 39° | 18km/h | 22956m | 4.9m/s | -50.9°C | 0.5% | 36.6hPa | 2.4V | 18:12:15 | 01:58:18 | 00:00:00 | |
| DJ2DS-15 | 2026-09-01 00:50:35 | 56.54647 | 4.05591 | 33° | 13km/h | 22951m | 4.4m/s | -50.9°C | 3.7% | 36.6hPa | 2.4V | 00:00:00 | 01:58:17 | 00:00:00 | |
| DM0DOS-11 | 2026-09-01 00:50:31 | 56.54634 | 4.05574 | 31° | 13km/h | 22927m | 5.4m/s | -50.9°C | 3.7% | 36.8hPa | 2.4V | 08:30:00 | 01:58:12 | 00:00:00 | |
| DL1XH-west | 2026-09-01 00:50:26 | 56.54608 | 4.05556 | 18° | 20km/h | 22897m | 5m/s | -50.9°C | 0.4% | 36.9hPa | 2.5V | 18:12:15 | 01:58:06 | 00:00:00 | |
| DL1XH-west | 2026-09-01 00:50:15 | 56.54588 | 4.05544 | 24° | 9km/h | 22853m | 4.5m/s | -50.9°C | 0.5% | 37.2hPa | 2.4V | 18:12:15 | 01:57:57 | 00:00:00 | |
| DM0DOS-11 | 2026-09-01 00:50:12 | 56.54572 | 4.05536 | 7° | 13km/h | 22830m | 4.6m/s | -50.9°C | 3.7% | 37.3hPa | 2.4V | 08:30:00 | 01:57:52 | 00:00:00 | |
| DM0DOS-11 | 2026-09-01 00:50:05 | 56.54551 | 4.05521 | 8° | 11km/h | 22781m | 5m/s | -51.3°C | 3.8% | 37.6hPa | 2.4V | 08:30:00 | 01:57:42 | 00:00:00 | |
| DL1XH-west | 2026-09-01 00:50:04 | 56.54557 | 4.05529 | 30° | 7km/h | 22801m | 5.7m/s | -51.2°C | 0.5% | 37.5hPa | 2.5V | 18:12:15 | 01:57:46 | 00:00:00 | |
| DL1XH-west | 2026-09-01 00:49:54 | 56.54521 | 4.05514 | 11° | 20km/h | 22745m | 5.9m/s | -51.1°C | 0.5% | 37.8hPa | 2.5V | 18:12:15 | 01:57:35 | 00:00:00 | |
| DM0DOS-11 | 2026-09-01 00:49:52 | 56.54509 | 4.05504 | 23° | 16km/h | 22730m | 5.4m/s | -51°C | 3.7% | 37.9hPa | 2.4V | 08:30:00 | 01:57:32 | 00:00:00 | |
| HTAHTA | 2026-09-01 00:49:46 | 56.54494 | 4.05498 | 14° | 13km/h | 22711m | 4.7m/s | -51.1°C | 1.0% | 38.0hPa | 2.4V | 00:00:00 | 00:00:00 | 00:00:00 | |
| DL1XH-west | 2026-09-01 00:49:43 | 56.54482 | 4.05498 | 345° | 13km/h | 22691m | 4.1m/s | -51.1°C | 0.5% | 38.1hPa | 2.4V | 18:12:15 | 01:57:24 | 00:00:00 | |
| DM0DOS-11 | 2026-09-01 00:49:41 | 56.54477 | 4.05498 | 18° | 11km/h | 22681m | 4.8m/s | -51.1°C | 3.7% | 38.2hPa | 2.5V | 08:30:00 | 01:57:22 | 00:00:00 | |
| DM0DOS-11 | 2026-09-01 00:49:35 | 56.54449 | 4.05488 | 308° | 4km/h | 22634m | 4.4m/s | -51.1°C | 3.8% | 38.5hPa | 2.4V | 08:30:00 | 01:57:12 | 00:00:00 | |
| DL1XH-west | 2026-09-01 00:49:32 | 56.54450 | 4.05487 | 353° | 5km/h | 22639m | 5.6m/s | -51°C | 0.5% | 38.4hPa | 2.4V | 18:12:15 | 01:57:13 | 00:00:00 | |
| BIOWL1-15 | 2026-09-01 00:49:31 | 56.54448 | 4.05489 | 131° | 0km/h | 22624m | 5.7m/s | 0°C | 0% | 0hPa | 2.5V | 18:12:15 | 01:57:10 | 00:00:00 | |
| BIOWL1-15 | 2026-09-01 00:49:24 | 56.54441 | 4.05483 | 165° | 5km/h | 22563m | 4.6m/s | 0°C | 0% | 0hPa | 2.5V | 18:12:15 | 01:56:57 | 00:00:00 | |
| DL1XH-west | 2026-09-01 00:49:22 | 56.54446 | 4.05480 | 24° | 9km/h | 22591m | 4.5m/s | -51.2°C | 0.5% | 38.7hPa | 2.4V | 18:12:15 | 01:57:03 | 00:00:00 | |
| DM0DOS-11 | 2026-09-01 00:49:21 | 56.54442 | 4.05479 | 345° | 7km/h | 22581m | 5.2m/s | -51.2°C | 3.8% | 38.8hPa | 2.5V | 08:30:00 | 01:57:01 | 00:00:00 | |
| DL1XH-west | 2026-09-01 00:49:11 | 56.54449 | 4.05481 | 178° | 9km/h | 22543m | 4.3m/s | -51.2°C | 0.5% | 39hPa | 2.4V | 18:12:15 | 01:56:53 | 00:00:00 | |
| DM0DOS-11 | 2026-09-01 00:49:03 | 56.54461 | 4.05463 | 139° | 7km/h | 22482m | 5.5m/s | -51.3°C | 3.8% | 39.4hPa | 2.5V | 08:30:00 | 01:56:40 | 00:00:00 | |
| DL1XH-west | 2026-09-01 00:49:01 | 56.54458 | 4.05466 | 144° | 5km/h | 22491m | 4.1m/s | -51.2°C | 0.5% | 39.3hPa | 2.4V | 18:12:15 | 01:56:42 | 00:00:00 | |
| BIOWL1-15 | 2026-09-01 00:48:57 | 56.54468 | 4.05454 | 140° | 5km/h | 22458m | 4.9m/s | 0°C | 0% | 0hPa | 2.5V | 18:12:15 | 01:56:35 | 00:00:00 | |
| DJ2DS-15 | 2026-09-01 00:48:55 | 56.54465 | 4.05456 | 153° | 11km/h | 22467m | 5.4m/s | -51.2°C | 3.8% | 39.4hPa | 2.5V | 00:00:00 | 01:56:37 | 00:00:00 | |
| DM0DOS-11 | 2026-09-01 00:48:53 | 56.54478 | 4.05431 | 127° | 15km/h | 22430m | 4.4m/s | -51.3°C | 3.8% | 39.7hPa | 2.4V | 08:30:00 | 01:56:29 | 00:00:00 | |
| DL1XH-west | 2026-09-01 00:48:50 | 56.54474 | 4.05439 | 127° | 11km/h | 22438m | 5.1m/s | -51.3°C | 0.5% | 39.6hPa | 2.5V | 18:12:15 | 01:56:31 | 00:00:00 | |
| HTAHTA | 2026-09-01 00:48:44 | 56.54488 | 4.05408 | 128° | 13km/h | 22411m | 5.9m/s | -51.2°C | 1.0% | 39.8hPa | 2.4V | 00:00:00 | 00:00:00 | 00:00:00 | |
| DM0DOS-11 | 2026-09-01 00:48:42 | 56.54496 | 4.05378 | 99° | 13km/h | 22382m | 5.8m/s | -51.1°C | 3.7% | 40hPa | 2.4V | 08:30:00 | 01:56:19 | 00:00:00 | |
| DL1XH-west | 2026-09-01 00:48:38 | 56.54495 | 4.05384 | 106° | 15km/h | 22387m | 3.9m/s | -51.1°C | 0.5% | 39.9hPa | 2.5V | 18:12:15 | 01:56:20 | 00:00:00 | |
| DJ2DS-15 | 2026-09-01 00:48:35 | 56.54495 | 4.05367 | 88° | 16km/h | 22372m | 4.5m/s | -51.1°C | 3.7% | 40.0hPa | 2.4V | 00:00:00 | 01:56:17 | 00:00:00 | |
| DM0DOS-11 | 2026-09-01 00:48:30 | 56.54502 | 4.05299 | 86° | 18km/h | 22323m | 5.4m/s | -51.3°C | 3.7% | 40.4hPa | 2.4V | 08:30:00 | 01:56:07 | 00:00:00 | |
| DL1XH-west | 2026-09-01 00:48:27 | 56.54502 | 4.05316 | 103° | 18km/h | 22333m | 4.5m/s | -51.2°C | 0.4% | 40.3hPa | 2.4V | 18:12:15 | 01:56:09 | 00:00:00 | |
| DM0DOS-11 | 2026-09-01 00:48:20 | 56.54494 | 4.05218 | 87° | 18km/h | 22274m | 3.8m/s | -51.4°C | 3.8% | 40.7hPa | 2.5V | 08:30:00 | 01:55:57 | 00:00:00 | |
| DL1XH-west | 2026-09-01 00:48:17 | 56.54495 | 4.05235 | 79° | 18km/h | 22284m | 5m/s | -51.4°C | 0.5% | 40.6hPa | 2.4V | 18:12:15 | 01:55:59 | 00:00:00 | |
| DJ2DS-15 | 2026-09-01 00:48:15 | 56.54494 | 4.05218 | 88° | 18km/h | 22274m | 3.7m/s | -51.4°C | 3.8% | 40.6hPa | 2.5V | 00:00:00 | 01:55:57 | 00:00:00 | |
| HTAHTA | 2026-09-01 00:48:13 | 56.54492 | 4.05195 | 69° | 15km/h | 22260m | 4.5m/s | -51.7°C | 1.0% | 40.7hPa | 2.5V | 00:00:00 | 00:00:00 | 00:00:00 | |
| DM0DOS-11 | 2026-09-01 00:48:08 | 56.54471 | 4.05120 | 72° | 20km/h | 22216m | 4.3m/s | -51.8°C | 3.8% | 41hPa | 2.5V | 08:30:00 | 01:55:45 | 00:00:00 | |
| DL1XH-west | 2026-09-01 00:48:07 | 56.54482 | 4.05155 | 57° | 22km/h | 22235m | 5.1m/s | -51.7°C | 0.5% | 40.9hPa | 2.4V | 18:12:15 | 01:55:49 | 00:00:00 | |
| DL1XH-west | 2026-09-01 00:47:57 | 56.54470 | 4.05078 | 99° | 11km/h | 22185m | 4.9m/s | -52.1°C | 0.6% | 41.2hPa | 2.4V | 18:12:15 | 01:55:39 | 00:00:00 | |
| DL1XH-west | 2026-09-01 00:47:46 | 56.54446 | 4.05014 | 87° | 18km/h | 22133m | 3.9m/s | -52.2°C | 0.6% | 41.5hPa | 2.4V | 18:12:15 | 01:55:28 | 00:00:00 | |
| DL1XH-west | 2026-09-01 00:47:36 | 56.54442 | 4.04959 | 81° | 11km/h | 22086m | 5.1m/s | -52.3°C | 0.6% | 41.9hPa | 2.4V | 18:12:15 | 01:55:18 | 00:00:00 | |
| DJ2DS-15 | 2026-09-01 00:47:35 | 56.54441 | 4.04954 | 88° | 15km/h | 22081m | 4.8m/s | -52.2°C | 4.0% | 41.9hPa | 2.5V | 00:00:00 | 01:55:17 | 00:00:00 | |
| DM0DOS-11 | 2026-09-01 00:47:29 | 56.54431 | 4.04882 | 51° | 11km/h | 22028m | 4.3m/s | -52°C | 3.9% | 42.2hPa | 2.5V | 08:30:00 | 01:55:06 | 00:00:00 | |
| DL1XH-west | 2026-09-01 00:47:25 | 56.54432 | 4.04886 | 64° | 11km/h | 22033m | 4.8m/s | -52.1°C | 0.6% | 42.2hPa | 2.4V | 18:12:15 | 01:55:07 | 00:00:00 | |
| DM0DOS-11 | 2026-09-01 00:47:18 | 56.54419 | 4.04831 | 96° | 7km/h | 21981m | 5m/s | -52.2°C | 4% | 42.5hPa | 2.5V | 08:30:00 | 01:54:56 | 00:00:00 | |
| DL1XH-west | 2026-09-01 00:47:14 | 56.54419 | 4.04830 | 96° | 7km/h | 21981m | 5m/s | -52.2°C | 0.6% | 42.5hPa | 2.5V | 18:12:15 | 01:54:56 | 00:00:00 | |
| HTAHTA | 2026-09-01 00:47:11 | 56.54419 | 4.04825 | 54° | 4km/h | 21961m | 5.2m/s | -52.1°C | 1.1% | 42.7hPa | 2.4V | 00:00:00 | 00:00:00 | 00:00:00 | |
| DM0DOS-11 | 2026-09-01 00:47:05 | 56.54412 | 4.04812 | 85° | 5km/h | 21932m | 5.2m/s | -52.1°C | 4% | 42.9hPa | 2.4V | 08:30:00 | 01:54:46 | 00:00:00 | |
| DL1XH-west | 2026-09-01 00:47:04 | 56.54413 | 4.04812 | 85° | 5km/h | 21932m | 5.2m/s | -52.1°C | 0.7% | 42.9hPa | 2.4V | 18:12:15 | 01:54:46 | 00:00:00 | |
| DL1XH-west | 2026-09-01 00:46:54 | 56.54405 | 4.04800 | 4° | 11km/h | 21885m | 4.6m/s | -51.8°C | 0.6% | 43.2hPa | 2.4V | 18:12:15 | 01:54:36 | 00:00:00 | |
| DM0DOS-11 | 2026-09-01 00:46:53 | 56.54401 | 4.04798 | 21° | 7km/h | 21876m | 5.4m/s | -51.8°C | 3.9% | 43.2hPa | 2.5V | 08:30:00 | 01:54:34 | 00:00:00 | |
| DL1XH-west | 2026-09-01 00:46:43 | 56.54396 | 4.04788 | 29° | 2km/h | 21833m | 5.1m/s | -51.6°C | 0.6% | 43.5hPa | 2.4V | 18:12:15 | 01:54:25 | 00:00:00 | |
| DM0DOS-11 | 2026-09-01 00:46:43 | 56.54396 | 4.04787 | 28° | 4km/h | 21828m | 3.9m/s | -51.6°C | 3.9% | 43.6hPa | 2.5V | 08:30:00 | 01:54:24 | 00:00:00 | |
| HTAHTA | 2026-09-01 00:46:40 | 56.54394 | 4.04783 | 89° | 2km/h | 21813m | 5.1m/s | -51.6°C | 1.1% | 43.7hPa | 2.5V | 00:00:00 | 00:00:00 | 00:00:00 | |
| DM0DOS-11 | 2026-09-01 00:46:37 | 56.54401 | 4.04770 | 119° | 2km/h | 21774m | 3.9m/s | -51.6°C | 3.8% | 43.9hPa | 2.5V | 08:30:00 | 01:54:13 | 00:00:00 | |
| DL1XH-west | 2026-09-01 00:46:32 | 56.54400 | 4.04771 | 150° | 4km/h | 21779m | 4.3m/s | -51.6°C | 0.6% | 43.9hPa | 2.4V | 18:12:15 | 01:54:14 | 00:00:00 | |
| DJ2DS-15 | 2026-09-01 00:46:25 | 56.54391 | 4.04760 | 27° | 5km/h | 21740m | 5.8m/s | -51.7°C | 1.0% | 44.1hPa | 2.4V | 00:00:00 | 00:00:00 | 00:00:00 | |
| DM0DOS-11 | 2026-09-01 00:46:23 | 56.54390 | 4.04756 | 91° | 4km/h | 21730m | 4.6m/s | -51.6°C | 3.8% | 44.2hPa | 2.4V | 08:30:00 | 01:54:04 | 00:00:00 | |
| DL1XH-west | 2026-09-01 00:46:22 | 56.54390 | 4.04756 | 92° | 4km/h | 21730m | 4.6m/s | -51.6°C | 0.6% | 44.2hPa | 2.4V | 18:12:15 | 01:54:04 | 00:00:00 | |
| DM0DOS-11 | 2026-09-01 00:46:17 | 56.54378 | 4.04721 | 53° | 9km/h | 21677m | 4.4m/s | -51.6°C | 3.8% | 44.6hPa | 2.4V | 08:30:00 | 01:53:53 | 00:00:00 | |
| DL1XH-west | 2026-09-01 00:46:12 | 56.54378 | 4.04721 | 54° | 9km/h | 21677m | 4.4m/s | -51.6°C | 0.5% | 44.6hPa | 2.4V | 18:12:15 | 01:53:53 | 00:00:00 | |
| HTAHTA | 2026-09-01 00:46:09 | 56.54373 | 4.04709 | 59° | 9km/h | 21654m | 4.8m/s | -52.0°C | 1.1% | 44.8hPa | 2.5V | 00:00:00 | 00:00:00 | 00:00:00 | |
| DM0DOS-11 | 2026-09-01 00:46:06 | 56.54364 | 4.04689 | 35° | 16km/h | 21635m | 4.7m/s | -51.8°C | 4% | 44.9hPa | 2.5V | 08:30:00 | 01:53:44 | 00:00:00 | |
| DL1XH-west | 2026-09-01 00:46:01 | 56.54360 | 4.04685 | 36° | 16km/h | 21630m | 4.9m/s | -51.8°C | 0.6% | 44.9hPa | 2.4V | 18:12:15 | 01:53:43 | 00:00:00 | |
| DM0DOS-11 | 2026-09-01 00:45:56 | 56.54335 | 4.04658 | 22° | 16km/h | 21587m | 4.9m/s | -51.6°C | 3.9% | 45.2hPa | 2.5V | 08:30:00 | 01:53:34 | 00:00:00 | |
| DL1XH-west | 2026-09-01 00:45:50 | 56.54327 | 4.04651 | 32° | 18km/h | 21577m | 5.4m/s | -51.6°C | 0.6% | 45.3hPa | 2.5V | 18:12:15 | 01:53:32 | 00:00:00 | |
| DM0DOS-11 | 2026-09-01 00:45:41 | 56.54304 | 4.04616 | 38° | 7km/h | 21519m | 5.2m/s | -51.5°C | 3.9% | 45.7hPa | 2.4V | 08:30:00 | 01:53:20 | 00:00:00 | |
| DL1XH-west | 2026-09-01 00:45:39 | 56.54305 | 4.04617 | 17° | 5km/h | 21524m | 5.5m/s | -51.5°C | 0.5% | 45.7hPa | 2.4V | 18:12:15 | 01:53:21 | 00:00:00 | |
| DL1XH-west | 2026-09-01 00:45:30 | 56.54290 | 4.04590 | 47° | 4km/h | 21476m | 4.5m/s | -51.5°C | 0.5% | 46hPa | 2.5V | 18:12:15 | 01:53:11 | 00:00:00 | |
| DM0DOS-11 | 2026-09-01 00:45:30 | 56.54292 | 4.04587 | 140° | 7km/h | 21458m | 4.4m/s | -51.6°C | 3.8% | 46.2hPa | 2.4V | 08:30:00 | 01:53:07 | 00:00:00 | |
| DL1XH-west | 2026-09-01 00:45:19 | 56.54298 | 4.04566 | 99° | 9km/h | 21423m | 5.8m/s | -51.7°C | 0.6% | 46.4hPa | 2.5V | 18:12:15 | 01:53:00 | 00:00:00 | |
| DM0DOS-11 | 2026-09-01 00:45:19 | 56.54303 | 4.04543 | 121° | 16km/h | 21399m | 4.6m/s | -51.6°C | 3.9% | 46.6hPa | 2.5V | 08:30:00 | 01:52:55 | 00:00:00 | |
| DL1XH-west | 2026-09-01 00:45:08 | 56.54314 | 4.04511 | 121° | 18km/h | 21374m | 4.8m/s | -51.5°C | 0.6% | 46.8hPa | 2.5V | 18:12:15 | 01:52:50 | 00:00:00 | |
| HTAHTA | 2026-09-01 00:45:07 | 56.54318 | 4.04497 | 111° | 15km/h | 21365m | 5.1m/s | -51.5°C | 1.1% | 46.8hPa | 2.5V | 00:00:00 | 00:00:00 | 00:00:00 | |
| DM0DOS-11 | 2026-09-01 00:45:06 | 56.54322 | 4.04472 | 113° | 16km/h | 21345m | 4.7m/s | -51.4°C | 3.8% | 46.9hPa | 2.5V | 08:30:00 | 01:52:44 | 00:00:00 | |
| DL1XH-west | 2026-09-01 00:44:58 | 56.54327 | 4.04440 | 95° | 18km/h | 21326m | 3.9m/s | -51.4°C | 0.6% | 47.1hPa | 2.5V | 18:12:15 | 01:52:40 | 00:00:00 | |
| DL1XH-west | 2026-09-01 00:44:48 | 56.54335 | 4.04346 | 103° | 20km/h | 21274m | 4.7m/s | -51.3°C | 0.5% | 47.5hPa | 2.5V | 18:12:15 | 01:52:29 | 00:00:00 | |
| DL1XH-west | 2026-09-01 00:44:37 | 56.54339 | 4.04227 | 101° | 26km/h | 21224m | 3.9m/s | -51.1°C | 0.5% | 47.9hPa | 2.5V | 18:12:15 | 01:52:19 | 00:00:00 | |
| DL1XH-west | 2026-09-01 00:44:27 | 56.54337 | 4.04101 | 88° | 37km/h | 21177m | 5.3m/s | -51.1°C | 0.5% | 48.2hPa | 2.5V | 18:12:15 | 01:52:09 | 00:00:00 | |
| DL1XH-west | 2026-09-01 00:44:17 | 56.54330 | 4.03958 | 76° | 31km/h | 21128m | 3.8m/s | -51.2°C | 0.5% | 48.6hPa | 2.5V | 18:12:15 | 01:51:59 | 00:00:00 | |
| DL1XH-west | 2026-09-01 00:44:07 | 56.54311 | 4.03808 | 72° | 31km/h | 21079m | 4.2m/s | -51.1°C | 0.6% | 48.9hPa | 2.5V | 18:12:15 | 01:51:49 | 00:00:00 | |
| DL1XH-west | 2026-09-01 00:43:57 | 56.54296 | 4.03653 | 74° | 33km/h | 21028m | 5.1m/s | -50.9°C | 0.5% | 49.3hPa | 2.5V | 18:12:15 | 01:51:38 | 00:00:00 | |
| DJ2DS-15 | 2026-09-01 00:43:55 | 56.54293 | 4.03638 | 68° | 33km/h | 21023m | 5.1m/s | -50.8°C | 3.8% | 49.3hPa | 2.5V | 00:00:00 | 01:51:37 | 08:30:00 | |
| DM0DOS-11 | 2026-09-01 00:43:51 | 56.54272 | 4.03542 | 75° | 31km/h | 20989m | 4.4m/s | -50.8°C | 3.8% | 49.6hPa | 2.5V | 08:30:00 | 01:51:30 | 00:00:00 | |
| DL1XH-west | 2026-09-01 00:43:45 | 56.54269 | 4.03500 | 86° | 33km/h | 20975m | 4m/s | -50.7°C | 0.5% | 49.7hPa | 2.4V | 18:12:15 | 01:51:27 | 00:00:00 | |
| DM0DOS-11 | 2026-09-01 00:43:39 | 56.54242 | 4.03337 | 81° | 29km/h | 20923m | 4.7m/s | -50.4°C | 3.7% | 50.1hPa | 2.5V | 08:30:00 | 01:51:16 | 00:00:00 | |
| DL1XH-west | 2026-09-01 00:43:35 | 56.54241 | 4.03337 | 82° | 29km/h | 20924m | 4.7m/s | -50.4°C | 0.5% | 50.1hPa | 2.5V | 18:12:15 | 01:51:16 | 00:00:00 | |
| DL1XH-west | 2026-09-01 00:43:24 | 56.54221 | 4.03186 | 77° | 31km/h | 20874m | 4.3m/s | -50.2°C | 0.4% | 50.5hPa | 2.5V | 18:12:15 | 01:51:05 | 00:00:00 | |
| DM0DOS-11 | 2026-09-01 00:43:21 | 56.54213 | 4.03095 | 78° | 27km/h | 20840m | 5m/s | -50.1°C | 3.6% | 50.7hPa | 2.5V | 08:30:00 | 01:50:58 | 00:00:00 | |
| DL1XH-west | 2026-09-01 00:43:12 | 56.54205 | 4.03039 | 76° | 35km/h | 20822m | 4.4m/s | -50.2°C | 0.4% | 50.9hPa | 2.5V | 18:12:15 | 01:50:54 | 00:00:00 | |
| DM0DOS-11 | 2026-09-01 00:43:11 | 56.54192 | 4.02953 | 77° | 26km/h | 20794m | 4.8m/s | -50.1°C | 3.6% | 51.1hPa | 2.5V | 08:30:00 | 01:50:48 | 00:00:00 | |
| HTAHTA | 2026-09-01 00:43:02 | 56.54187 | 4.02912 | 82° | 20km/h | 20775m | 4.5m/s | -50.1°C | -1.0% | 51.3hPa | 2.5V | 00:00:00 | 00:00:00 | 00:00:00 | |
| DM0DOS-11 | 2026-09-01 00:43:01 | 56.54175 | 4.02841 | 73° | 29km/h | 20748m | 4.2m/s | -50.1°C | 3.6% | 51.5hPa | 2.5V | 08:30:00 | 01:50:38 | 00:00:00 | |
| DL1XH-west | 2026-09-01 00:43:01 | 56.54186 | 4.02902 | 79° | 24km/h | 20770m | 4.1m/s | -50.1°C | 0.4% | 51.3hPa | 2.4V | 18:12:15 | 01:50:43 | 00:00:00 | |
| BIOWL1-15 | 2026-09-01 00:42:55 | 56.54154 | 4.02724 | 56° | 24km/h | 20704m | 3.7m/s | 0°C | 0% | 0hPa | 2.5V | 18:12:15 | 01:50:28 | 00:00:00 | |
| DL1XH-west | 2026-09-01 00:42:51 | 56.54123 | 4.02628 | 60° | 27km/h | 20658m | 4.8m/s | -50.3°C | 0.5% | 52.2hPa | 2.5V | 18:12:15 | 01:50:18 | 00:00:00 | |
| BIOWL9-15 | 2026-09-01 00:42:49 | 56.54158 | 4.02734 | 60° | 24km/h | 20708m | 4.3m/s | -50.2°C | -1.0% | 51.8hPa | 2.6V | 00:00:00 | 00:00:00 | 00:00:00 | |
| DM0DOS-11 | 2026-09-01 00:42:46 | 56.54116 | 4.02607 | 60° | 26km/h | 20649m | 5.6m/s | -50.2°C | 3.6% | 52.3hPa | 2.6V | 08:30:00 | 01:50:16 | 00:00:00 | |
| DL1XH-west | 2026-09-01 00:42:30 | 56.54103 | 4.02568 | 61° | 26km/h | 20629m | 3.2m/s | -50°C | 0.4% | 52.4hPa | 2.5V | 18:12:15 | 01:50:12 | 00:00:00 | |
| BIOWL1-15 | 2026-09-01 00:42:29 | 56.54096 | 4.02536 | 71° | 26km/h | 20615m | 4.5m/s | 0°C | 0% | 0hPa | 2.6V | 18:12:15 | 01:50:09 | 00:00:00 | |
| DL1XH-west | 2026-09-01 00:42:19 | 56.54074 | 4.02461 | 52° | 26km/h | 20580m | 3.8m/s | -49.8°C | 0.4% | 52.8hPa | 2.5V | 18:12:15 | 01:50:01 | 00:00:00 | |
| BIOWL1-15 | 2026-09-01 00:42:17 | 56.54067 | 4.02442 | 58° | 24km/h | 20572m | 5m/s | 0°C | 0% | 0hPa | 2.5V | 18:12:15 | 01:49:59 | 00:00:00 | |
| DM0DOS-11 | 2026-09-01 00:42:17 | 56.54060 | 4.02414 | 68° | 24km/h | 20559m | 4.8m/s | -49.7°C | 3.6% | 53hPa | 2.5V | 08:30:00 | 01:49:56 | 00:00:00 | |
| DL1XH-west | 2026-09-01 00:42:08 | 56.54051 | 4.02351 | 68° | 24km/h | 20531m | 4.5m/s | -49.6°C | 0.4% | 53.2hPa | 2.5V | 18:12:15 | 01:49:50 | 00:00:00 | |
| DM0DOS-11 | 2026-09-01 00:42:07 | 56.54041 | 4.02321 | 37° | 16km/h | 20513m | 4.8m/s | -49.6°C | 3.5% | 53.4hPa | 2.5V | 08:30:00 | 01:49:46 | 00:00:00 | |
| BIOWL1-15 | 2026-09-01 00:42:07 | 56.54030 | 4.02311 | 29° | 15km/h | 20499m | 5.1m/s | 0°C | 0% | 0hPa | 2.5V | 18:12:15 | 01:49:43 | 00:00:00 | |
| HTAHTA | 2026-09-01 00:42:00 | 56.54022 | 4.02259 | 87° | 18km/h | 20467m | 4.4m/s | -49.7°C | -1.0% | 53.8hPa | 2.5V | 00:00:00 | 00:00:00 | 00:00:00 | |
| DM0DOS-11 | 2026-09-01 00:41:57 | 56.54022 | 4.02259 | 87° | 20km/h | 20467m | 4.3m/s | -49.6°C | 3.5% | 53.8hPa | 2.5V | 08:30:00 | 01:49:36 | 00:00:00 | |
| DL1XH-west | 2026-09-01 00:41:57 | 56.54024 | 4.02288 | 78° | 20km/h | 20481m | 4.4m/s | -49.6°C | 0.4% | 53.6hPa | 2.5V | 18:12:15 | 01:49:39 | 00:00:00 | |
| BIOWL1-15 | 2026-09-01 00:41:48 | 56.54000 | 4.02206 | 36° | 16km/h | 20433m | 4.8m/s | 0°C | 0% | 0hPa | 2.6V | 18:12:15 | 01:49:28 | 00:00:00 | |
| DM0DOS-11 | 2026-09-01 00:41:47 | 56.53995 | 4.02197 | 45° | 13km/h | 20424m | 4m/s | -49.6°C | 3.5% | 54.1hPa | 2.5V | 08:30:00 | 01:49:26 | 00:00:00 | |
| DL1XH-west | 2026-09-01 00:41:47 | 56.54004 | 4.02210 | 38° | 15km/h | 20437m | 3.4m/s | -49.6°C | 0.3% | 54hPa | 2.6V | 18:12:15 | 01:49:29 | 00:00:00 | |
| BIOWL9-15 | 2026-09-01 00:41:47 | 56.54004 | 4.02210 | 37° | 15km/h | 20437m | 3.4m/s | -49.6°C | -1.0% | -1.0hPa | 2.5V | 00:00:00 | 00:00:00 | 00:00:00 | |
| DM0DOS-11 | 2026-09-01 00:41:37 | 56.53973 | 4.02117 | 69° | 24km/h | 20380m | 4.1m/s | -49.5°C | 3.5% | 54.5hPa | 2.5V | 08:30:00 | 01:49:16 | 00:00:00 | |
| DL1XH-west | 2026-09-01 00:41:36 | 56.53978 | 4.02136 | 59° | 22km/h | 20390m | 4.2m/s | -49.5°C | 0.3% | 54.4hPa | 2.5V | 18:12:15 | 01:49:18 | 00:00:00 | |
| BIOWL1-15 | 2026-09-01 00:41:34 | 56.53959 | 4.02022 | 81° | 26km/h | 20331m | 4.5m/s | 0°C | 0% | 0hPa | 2.5V | 18:12:15 | 01:49:05 | 00:00:00 | |
| DM0DOS-11 | 2026-09-01 00:41:27 | 56.53959 | 4.02022 | 81° | 26km/h | 20331m | 4.5m/s | -49.5°C | 3.5% | 54.9hPa | 2.5V | 08:30:00 | 01:49:05 | 00:00:00 | |
| DL1XH-west | 2026-09-01 00:41:26 | 56.53963 | 4.02051 | 72° | 18km/h | 20345m | 4.6m/s | -49.6°C | 0.3% | 54.8hPa | 2.5V | 18:12:15 | 01:49:08 | 00:00:00 | |
| BIOWL1-15 | 2026-09-01 00:41:21 | 56.53957 | 4.01999 | 82° | 27km/h | 20322m | 4.9m/s | 0°C | 0% | 0hPa | 2.5V | 18:12:15 | 01:49:03 | 00:00:00 | |
| DM0DOS-11 | 2026-09-01 00:41:17 | 56.53943 | 4.01895 | 71° | 33km/h | 20284m | 5.1m/s | -49.4°C | 3.5% | 55.3hPa | 2.5V | 08:30:00 | 01:48:55 | 00:00:00 | |
| DL1XH-west | 2026-09-01 00:41:15 | 56.53948 | 4.01921 | 74° | 29km/h | 20293m | 4.5m/s | -49.4°C | 0.3% | 55.2hPa | 2.5V | 18:12:15 | 01:48:57 | 00:00:00 | |
| BIOWL1-15 | 2026-09-01 00:41:13 | 56.53918 | 4.01771 | 69° | 31km/h | 20238m | 4.2m/s | 0°C | 0% | 0hPa | 2.5V | 18:12:15 | 01:48:45 | 00:00:00 | |
| DM0DOS-11 | 2026-09-01 00:41:07 | 56.53918 | 4.01771 | 68° | 31km/h | 20238m | 4.2m/s | -49.8°C | 3.5% | 55.7hPa | 2.5V | 08:30:00 | 01:48:45 | 00:00:00 | |
| DL1XH-west | 2026-09-01 00:41:05 | 56.53924 | 4.01796 | 72° | 29km/h | 20247m | 5.1m/s | -49.7°C | 0.3% | 55.6hPa | 2.6V | 18:12:15 | 01:48:47 | 00:00:00 | |
| DJ2DS-15 | 2026-09-01 00:41:00 | 56.53910 | 4.01730 | 67° | 31km/h | 20224m | 5.4m/s | -49.8°C | 1.0% | 55.8hPa | 2.6V | 00:00:00 | 00:00:00 | 00:00:00 | |
| HTAHTA | 2026-09-01 00:40:58 | 56.53888 | 4.01649 | 65° | 33km/h | 20196m | 4.8m/s | -49.9°C | -1.0% | 56.0hPa | 2.6V | 00:00:00 | 00:00:00 | 00:00:00 | |
| DM0DOS-11 | 2026-09-01 00:40:57 | 56.53885 | 4.01635 | 66° | 35km/h | 20191m | 4.1m/s | -49.9°C | 3.6% | 56.1hPa | 2.6V | 08:30:00 | 01:48:35 | 00:00:00 | |
| BIOWL1-15 | 2026-09-01 00:40:56 | 56.53896 | 4.01678 | 65° | 35km/h | 20205m | 4.3m/s | 0°C | 0% | 0hPa | 2.5V | 18:12:15 | 01:48:38 | 00:00:00 | |
| DL1XH-west | 2026-09-01 00:40:54 | 56.53888 | 4.01649 | 65° | 35km/h | 20196m | 4.8m/s | -49.9°C | 0.4% | 56hPa | 2.6V | 18:12:15 | 01:48:36 | 00:00:00 | |
| DM0DOS-11 | 2026-09-01 00:40:46 | 56.53835 | 4.01457 | 61° | 37km/h | 20136m | 4.8m/s | -50.1°C | 3.7% | 56.5hPa | 2.6V | 08:30:00 | 01:48:23 | 00:00:00 | |
| DL1XH-west | 2026-09-01 00:40:43 | 56.53843 | 4.01486 | 63° | 35km/h | 20145m | 5m/s | -50.1°C | 0.4% | 56.5hPa | 2.5V | 18:12:15 | 01:48:25 | 00:00:00 | |
| DL1XH-west | 2026-09-01 00:40:32 | 56.53782 | 4.01331 | 49° | 38km/h | 20096m | 4.7m/s | -49.9°C | 0.4% | 56.9hPa | 2.5V | 18:12:15 | 01:48:14 | 00:00:00 | |
| DL1XH-west | 2026-09-01 00:40:22 | 56.53730 | 4.01212 | 49° | 35km/h | 20049m | 4.6m/s | -49.6°C | 0.4% | 57.3hPa | 2.5V | 18:12:15 | 01:48:04 | 00:00:00 | |
| DL1XH-west | 2026-09-01 00:40:11 | 56.53672 | 4.01096 | 51° | 27km/h | 19999m | 4.4m/s | -49.4°C | 0.3% | 57.8hPa | 2.6V | 18:12:15 | 01:47:53 | 00:00:00 | |
| DL1XH-west | 2026-09-01 00:40:00 | 56.53626 | 4.00994 | 53° | 22km/h | 19948m | 5.2m/s | -49.2°C | 0.3% | 58.2hPa | 2.6V | 18:12:15 | 01:47:42 | 00:00:00 | |
| DL1XH-west | 2026-09-01 00:39:49 | 56.53597 | 4.00917 | 56° | 15km/h | 19897m | 4.7m/s | -49.2°C | 0.3% | 58.6hPa | 2.5V | 18:12:15 | 01:47:31 | 00:00:00 | |
| DJ2DS-15 | 2026-09-01 00:39:48 | 56.53595 | 4.00911 | 53° | 13km/h | 19893m | 3.8m/s | -49.2°C | 1.0% | 58.7hPa | 2.5V | 00:00:00 | 00:00:00 | 00:00:00 | |
| DL1XH-west | 2026-09-01 00:39:38 | 56.53570 | 4.00834 | 58° | 22km/h | 19846m | 5.2m/s | -49.3°C | 0.3% | 59.1hPa | 2.5V | 18:12:15 | 01:47:20 | 00:00:00 | |
| BIOWL1-15 | 2026-09-01 00:39:31 | 56.53539 | 4.00776 | 67° | 18km/h | 19807m | 5.1m/s | -49.5°C | 0.3% | 59.5hPa | 2.6V | 18:12:15 | 01:47:11 | 00:00:00 | |
| DL1XH-west | 2026-09-01 00:39:28 | 56.53537 | 4.00768 | 72° | 22km/h | 19803m | 4.2m/s | -49.6°C | 0.4% | 59.5hPa | 2.5V | 18:12:15 | 01:47:10 | 00:00:00 | |
| DL1XH-west | 2026-09-01 00:39:17 | 56.53501 | 4.00659 | 54° | 26km/h | 19755m | 4.9m/s | -49.5°C | 0.4% | 59.9hPa | 2.6V | 18:12:15 | 01:46:59 | 00:00:00 | |
| DL1XH-west | 2026-09-01 00:39:06 | 56.53457 | 4.00550 | 56° | 26km/h | 19704m | 3.9m/s | -49.4°C | 0.3% | 60.4hPa | 2.6V | 18:12:15 | 01:46:48 | 00:00:00 | |
| BIOWL1-15 | 2026-09-01 00:39:05 | 56.53434 | 4.00493 | 55° | 26km/h | 19677m | 5.3m/s | -49.4°C | 0.3% | 60.7hPa | 2.6V | 18:12:15 | 01:46:42 | 00:00:00 | |
| DL1XH-west | 2026-09-01 00:38:56 | 56.53422 | 4.00453 | 73° | 27km/h | 19659m | 3.5m/s | -49.4°C | 0.4% | 60.8hPa | 2.5V | 18:12:15 | 01:46:38 | 00:00:00 | |
| HTAHTA | 2026-09-01 00:38:54 | 56.53413 | 4.00410 | 63° | 26km/h | 19642m | 5.1m/s | 0°C | -1.0% | -1.0hPa | 2.6V | 00:00:00 | 00:00:00 | 00:00:00 | |
| BIOWL1-15 | 2026-09-01 00:38:48 | 56.53383 | 4.00305 | 67° | 29km/h | 19597m | 3.4m/s | -49.5°C | 0.3% | 61.4hPa | 2.6V | 18:12:15 | 01:46:24 | 00:00:00 | |
| DL1XH-west | 2026-09-01 00:38:45 | 56.53390 | 4.00341 | 70° | 27km/h | 19611m | 3.7m/s | -49.6°C | 0.3% | 61.3hPa | 2.5V | 18:12:15 | 01:46:27 | 00:00:00 | |
| DL1XH-west | 2026-09-01 00:38:34 | 56.53349 | 4.00209 | 52° | 31km/h | 19562m | 4.5m/s | -49.4°C | 0.3% | 61.7hPa | 2.5V | 18:12:15 | 01:46:16 | 00:00:00 | |
| BIOWL1-15 | 2026-09-01 00:38:31 | 56.53334 | 4.00178 | 49° | 29km/h | 19549m | 3.8m/s | 0°C | 0% | 61.9hPa | 2.5V | 18:12:15 | 01:46:13 | 00:00:00 | |
| DL1XH-west | 2026-09-01 00:38:24 | 56.53294 | 4.00085 | 54° | 40km/h | 19518m | 5.2m/s | -49.6°C | 0.4% | 62.2hPa | 2.6V | 18:12:15 | 01:46:06 | 00:00:00 | |
| BIOWL1-15 | 2026-09-01 00:38:21 | 56.53257 | 4.00008 | 46° | 38km/h | 19491m | 3.8m/s | 0°C | 0% | 62.4hPa | 2.6V | 18:12:15 | 01:46:00 | 00:00:00 | |
| DL1XH-west | 2026-09-01 00:38:13 | 56.53224 | 3.99949 | 42° | 40km/h | 19468m | 4.2m/s | -49.3°C | 0.4% | 62.6hPa | 2.5V | 18:12:15 | 01:45:55 | 00:00:00 | |
| BIOWL1-15 | 2026-09-01 00:38:07 | 56.53168 | 3.99864 | 44° | 33km/h | 19434m | 4.7m/s | 0°C | 0% | 63hPa | 2.6V | 18:12:15 | 01:45:47 | 00:00:00 | |
| DL1XH-west | 2026-09-01 00:38:02 | 56.53150 | 3.99835 | 44° | 31km/h | 19420m | 5m/s | -49°C | 0.3% | 63.1hPa | 2.5V | 18:12:15 | 01:45:44 | 00:00:00 | |
| BIOWL1-15 | 2026-09-01 00:37:54 | 56.53069 | 3.99719 | 34° | 29km/h | 19362m | 4.2m/s | 0°C | 0% | 63.7hPa | 2.5V | 18:12:15 | 01:45:31 | 00:00:00 | |
| DL1XH-west | 2026-09-01 00:37:51 | 56.53082 | 3.99735 | 37° | 27km/h | 19370m | 4.3m/s | -48.6°C | 0.3% | 63.6hPa | 2.5V | 18:12:15 | 01:45:33 | 00:00:00 | |
| BIOWL1-15 | 2026-09-01 00:37:42 | 56.52973 | 3.99506 | 69° | 22km/h | 19245m | 4.7m/s | 0°C | 0% | 0hPa | 2.6V | 18:12:15 | 01:45:05 | 00:00:00 | |
| DL1XH-west | 2026-09-01 00:37:41 | 56.53029 | 3.99649 | 56° | 26km/h | 19325m | 5.1m/s | -48.5°C | 0.3% | 64hPa | 2.6V | 18:12:15 | 01:45:23 | 00:00:00 | |
| DL1XH-west | 2026-09-01 00:37:31 | 56.52991 | 3.99570 | 63° | 22km/h | 19281m | 4m/s | -48.4°C | 0.2% | 64.4hPa | 2.5V | 18:12:15 | 01:45:13 | 00:00:00 | |
| BIOWL1-15 | 2026-09-01 00:37:25 | 56.52972 | 3.99496 | 75° | 24km/h | 19240m | 4.7m/s | 0°C | 0% | 0hPa | 2.5V | 18:12:15 | 01:45:04 | 00:00:00 | |
| DL1XH-west | 2026-09-01 00:37:20 | 56.52968 | 3.99473 | 74° | 27km/h | 19231m | 5.3m/s | -48.5°C | 0.2% | 65hPa | 2.5V | 18:12:15 | 01:45:02 | 00:00:00 | |
| DL1XH-west | 2026-09-01 00:37:10 | 56.52953 | 3.99355 | 78° | 26km/h | 19186m | 3.8m/s | -48.6°C | 0.3% | 65.3hPa | 2.5V | 18:12:15 | 01:44:52 | 00:00:00 | |
| DL1XH-west | 2026-09-01 00:36:59 | 56.52920 | 3.99201 | 69° | 33km/h | 19135m | 4m/s | -48.6°C | 0.2% | 65.9hPa | 2.6V | 18:12:15 | 01:44:41 | 00:00:00 | |
| DL1XH-west | 2026-09-01 00:36:48 | 56.52877 | 3.99039 | 56° | 37km/h | 19085m | 4.5m/s | -48.5°C | 0.3% | 66.4hPa | 2.5V | 18:12:15 | 01:44:30 | 00:00:00 | |
| DJ2DS-15 | 2026-09-01 00:36:48 | 56.52872 | 3.99025 | 57° | 33km/h | 19080m | 4.2m/s | -48.5°C | 1.0% | 66.4hPa | 2.6V | 00:00:00 | 00:00:00 | 00:00:00 | |
| DL1XH-west | 2026-09-01 00:36:38 | 56.52831 | 3.98900 | 56° | 40km/h | 19039m | 4.1m/s | -48.4°C | 0.2% | 66.8hPa | 2.6V | 18:12:15 | 01:44:20 | 00:00:00 | |
| DL1XH-west | 2026-09-01 00:36:28 | 56.52762 | 3.98750 | 53° | 42km/h | 18989m | 5.4m/s | -48.7°C | 0.2% | 67.4hPa | 2.6V | 18:12:15 | 01:44:09 | 00:00:00 | |
| DL1XH-west | 2026-09-01 00:36:17 | 56.52686 | 3.98605 | 44° | 42km/h | 18944m | 4m/s | -48.8°C | 0.3% | 67.8hPa | 2.5V | 18:12:15 | 01:43:59 | 00:00:00 | |
| DL1XH-west | 2026-09-01 00:36:06 | 56.52592 | 3.98469 | 32° | 40km/h | 18893m | 4.3m/s | -49°C | 0.3% | 68.4hPa | 2.5V | 18:12:15 | 01:43:48 | 00:00:00 | |
| DL1XH-west | 2026-09-01 00:35:55 | 56.52502 | 3.98379 | 28° | 40km/h | 18843m | 3m/s | -49°C | 0.4% | 68.9hPa | 2.5V | 18:12:15 | 01:43:37 | 00:00:00 | |
| DL1XH-west | 2026-09-01 00:35:45 | 56.52425 | 3.98294 | 28° | 33km/h | 18801m | 4.7m/s | -48.8°C | 0.3% | 69.3hPa | 2.6V | 18:12:15 | 01:43:27 | 00:00:00 | |
| DM0DOS-11 | 2026-09-01 00:35:42 | 56.52385 | 3.98256 | 36° | 35km/h | 18780m | 3.5m/s | -48.7°C | 3.4% | 69.5hPa | 2.6V | 08:30:00 | 01:43:22 | 00:00:00 | |
| DL1XH-west | 2026-09-01 00:35:35 | 56.52346 | 3.98194 | 38° | 31km/h | 18753m | 4.9m/s | -48.5°C | 0.2% | 69.8hPa | 2.5V | 18:12:15 | 01:43:16 | 00:00:00 | |
| DL1XH-west | 2026-09-01 00:35:23 | 56.52274 | 3.98103 | 46° | 33km/h | 18705m | 4.4m/s | -49°C | 0.3% | 70.3hPa | 2.5V | 18:12:15 | 01:43:05 | 00:00:00 | |
| DL1XH-west | 2026-09-01 00:35:13 | 56.52229 | 3.98027 | 45° | 27km/h | 18662m | 4.9m/s | -49.1°C | 0.3% | 70.8hPa | 2.5V | 18:12:15 | 01:42:55 | 00:00:00 | |
| DM0DOS-11 | 2026-09-01 00:35:12 | 56.52209 | 3.97984 | 56° | 31km/h | 18644m | 4.2m/s | -49.2°C | 3.5% | 71hPa | 2.6V | 08:30:00 | 01:42:51 | 00:00:00 | |
| DL1XH-west | 2026-09-01 00:35:03 | 56.52182 | 3.97911 | 50° | 31km/h | 18616m | 5m/s | -49.1°C | 0.3% | 71.3hPa | 2.6V | 18:12:15 | 01:42:45 | 00:00:00 | |
| DM0DOS-11 | 2026-09-01 00:35:00 | 56.52160 | 3.97875 | 37° | 31km/h | 18597m | 4.8m/s | -49.1°C | 3.4% | 71.5hPa | 2.5V | 08:30:00 | 01:42:41 | 00:00:00 | |
| DJ2DS-15 | 2026-09-01 00:34:54 | 56.52129 | 3.97825 | 52° | 31km/h | 18575m | 4.1m/s | -49.2°C | 3.5% | 71.7hPa | 2.5V | 00:00:00 | 01:42:36 | 08:30:00 | |
| DM0DOS-11 | 2026-09-01 00:34:53 | 56.52103 | 3.97767 | 47° | 29km/h | 18552m | 3.8m/s | 0°C | 0% | 0hPa | 2.6V | 08:30:00 | 01:42:31 | 00:00:00 | |
| DL1XH-west | 2026-09-01 00:34:52 | 56.52119 | 3.97801 | 52° | 35km/h | 18565m | 3.9m/s | -49.4°C | 0.4% | 71.9hPa | 2.5V | 18:12:15 | 01:42:34 | 00:00:00 | |
| DM0DOS-11 | 2026-09-01 00:34:42 | 56.52036 | 3.97670 | 51° | 29km/h | 18504m | 3.6m/s | -49.5°C | 3.6% | 72.5hPa | 2.6V | 08:30:00 | 01:42:20 | 00:00:00 | |
| DL1XH-west | 2026-09-01 00:34:41 | 56.52053 | 3.97702 | 39° | 33km/h | 18517m | 3.8m/s | -49.5°C | 0.4% | 72.4hPa | 2.5V | 18:12:15 | 01:42:23 | 00:00:00 | |
| DL1XH-west | 2026-09-01 00:34:31 | 56.51996 | 3.97592 | 44° | 29km/h | 18469m | 3.5m/s | -49.4°C | 0.4% | 72.9hPa | 2.6V | 18:12:15 | 01:42:12 | 00:00:00 | |
| DM0DOS-11 | 2026-09-01 00:34:29 | 56.51986 | 3.97574 | 45° | 27km/h | 18460m | 3.9m/s | -49.3°C | 3.5% | 73.1hPa | 2.5V | 08:30:00 | 01:42:10 | 00:00:00 | |
| DM0DOS-11 | 2026-09-01 00:34:24 | 56.51939 | 3.97487 | 43° | 22km/h | 18414m | 4.1m/s | -49.2°C | 3.5% | 73.5hPa | 2.6V | 08:30:00 | 01:42:00 | 00:00:00 | |
| DL1XH-west | 2026-09-01 00:34:20 | 56.51948 | 3.97502 | 43° | 26km/h | 18423m | 4m/s | -49.2°C | 0.4% | 73.4hPa | 2.5V | 18:12:15 | 01:42:02 | 00:00:00 | |
| DJ2DS-15 | 2026-09-01 00:34:14 | 56.51921 | 3.97459 | 45° | 22km/h | 18397m | 3.9m/s | -49.3°C | 3.5% | 73.7hPa | 2.5V | 00:00:00 | 01:41:56 | 00:00:00 | |
| DM0DOS-11 | 2026-09-01 00:34:13 | 56.51894 | 3.97410 | 40° | 26km/h | 18370m | 4.6m/s | -49.3°C | 3.5% | 74hPa | 2.5V | 08:30:00 | 01:41:50 | 00:00:00 | |
| DL1XH-west | 2026-09-01 00:34:10 | 56.51904 | 3.97426 | 43° | 27km/h | 18379m | 4.6m/s | -49.3°C | 0.3% | 74hPa | 2.6V | 18:12:15 | 01:41:52 | 00:00:00 | |
| DM0DOS-11 | 2026-09-01 00:34:03 | 56.51856 | 3.97355 | 43° | 20km/h | 18325m | 4m/s | -49°C | 3.5% | 74.6hPa | 2.6V | 08:30:00 | 01:41:40 | 00:00:00 | |
| DL1XH-west | 2026-09-01 00:34:00 | 56.51859 | 3.97361 | 37° | 20km/h | 18330m | 4.1m/s | -49.1°C | 0.4% | 74.5hPa | 2.6V | 18:12:15 | 01:41:41 | 00:00:00 | |
| DJ2DS-15 | 2026-09-01 00:33:54 | 56.51842 | 3.97325 | 53° | 20km/h | 18307m | 4.0m/s | -48.9°C | 3.4% | 74.7hPa | 2.5V | 00:00:00 | 01:41:36 | 00:00:00 | |
| DM0DOS-11 | 2026-09-01 00:33:53 | 56.51826 | 3.97273 | 62° | 18km/h | 18281m | 3.5m/s | -48.8°C | 3.4% | 75.1hPa | 2.5V | 08:30:00 | 01:41:30 | 00:00:00 | |
| DL1XH-west | 2026-09-01 00:33:50 | 56.51829 | 3.97281 | 57° | 22km/h | 18285m | 3.7m/s | -48.8°C | 0.3% | 75hPa | 2.5V | 18:12:15 | 01:41:31 | 00:00:00 | |
| DJ2DS-15 | 2026-09-01 00:33:47 | 56.51824 | 3.97265 | 61° | 18km/h | 18277m | 4.8m/s | -48.8°C | 1.0% | 75.1hPa | 2.5V | 00:00:00 | 00:00:00 | 00:00:00 | |
| DM0DOS-11 | 2026-09-01 00:33:43 | 56.51800 | 3.97195 | 59° | 16km/h | 18237m | 5m/s | -48.9°C | 3.4% | 75.6hPa | 2.5V | 08:30:00 | 01:41:20 | 00:00:00 | |
| DL1XH-west | 2026-09-01 00:33:38 | 56.51800 | 3.97195 | 60° | 16km/h | 18237m | 5m/s | -48.9°C | 0.3% | 75.6hPa | 2.5V | 18:12:15 | 01:41:20 | 00:00:00 | |
| DJ2DS-15 | 2026-09-01 00:33:34 | 56.51793 | 3.97164 | 74° | 24km/h | 18219m | 4.5m/s | -48.8°C | 3.4% | 75.8hPa | 2.6V | 00:00:00 | 01:41:16 | 00:00:00 | |
| DM0DOS-11 | 2026-09-01 00:33:33 | 56.51778 | 3.97099 | 68° | 22km/h | 18193m | 3.8m/s | -48.9°C | 3.4% | 76.1hPa | 2.6V | 08:30:00 | 01:41:10 | 00:00:00 | |
| DL1XH-west | 2026-09-01 00:33:27 | 56.51776 | 3.97090 | 62° | 22km/h | 18188m | 4.8m/s | -48.9°C | 0.3% | 76.1hPa | 2.6V | 18:12:15 | 01:41:09 | 00:00:00 | |
| DM0DOS-11 | 2026-09-01 00:33:18 | 56.51743 | 3.96970 | 51° | 26km/h | 18137m | 3.6m/s | -49.1°C | 3.5% | 76.7hPa | 2.6V | 08:30:00 | 01:40:57 | 00:00:00 | |
| DL1XH-west | 2026-09-01 00:33:17 | 56.51747 | 3.96980 | 54° | 26km/h | 18141m | 5m/s | -49.1°C | 0.3% | 76.7hPa | 2.5V | 18:12:15 | 01:40:58 | 00:00:00 | |
| DJ2DS-15 | 2026-09-01 00:33:14 | 56.51739 | 3.96962 | 54° | 27km/h | 18133m | 4.3m/s | -49.1°C | 3.5% | 76.8hPa | 2.5V | 00:00:00 | 01:40:56 | 00:00:00 | |
| DJ2DS-15 | 2026-09-01 00:33:11 | 56.51729 | 3.96933 | 62° | 26km/h | 18120m | 4.9m/s | -49.2°C | 1.1% | 77.0hPa | 2.5V | 00:00:00 | 00:00:00 | 00:00:00 | |
| DM0DOS-11 | 2026-09-01 00:33:08 | 56.51710 | 3.96860 | 55° | 29km/h | 18094m | 4.2m/s | -49°C | 3.5% | 77.2hPa | 2.5V | 08:30:00 | 01:40:47 | 00:00:00 | |
| DL1XH-west | 2026-09-01 00:33:05 | 56.51710 | 3.96860 | 55° | 29km/h | 18094m | 4.3m/s | -49°C | 0.3% | 77.2hPa | 2.5V | 18:12:15 | 01:40:47 | 00:00:00 | |
| DM0DOS-11 | 2026-09-01 00:32:58 | 56.51667 | 3.96747 | 65° | 24km/h | 18041m | 3.8m/s | -48.5°C | 3.4% | 77.8hPa | 2.5V | 08:30:00 | 01:40:35 | 00:00:00 | |
| DL1XH-west | 2026-09-01 00:32:55 | 56.51671 | 3.96765 | 68° | 20km/h | 18050m | 3.4m/s | -48.6°C | 0.2% | 77.8hPa | 2.6V | 18:12:15 | 01:40:37 | 00:00:00 | |
| DJ2DS-15 | 2026-09-01 00:32:54 | 56.51669 | 3.96756 | 66° | 24km/h | 18046m | 4.9m/s | -48.5°C | 3.4% | 77.8hPa | 2.6V | 00:00:00 | 01:40:36 | 00:00:00 | |
| DM0DOS-11 | 2026-09-01 00:32:48 | 56.51635 | 3.96653 | 64° | 20km/h | 17998m | 4.3m/s | -48.5°C | 3.4% | 78.4hPa | 2.6V | 08:30:00 | 01:40:25 | 00:00:00 | |
| DL1XH-west | 2026-09-01 00:32:44 | 56.51637 | 3.96661 | 61° | 22km/h | 18002m | 3.8m/s | -48.5°C | 0.3% | 78.4hPa | 2.6V | 18:12:15 | 01:40:26 | 00:00:00 | |
| DL1XH-west | 2026-09-01 00:32:34 | 56.51622 | 3.96565 | 80° | 24km/h | 17959m | 3.9m/s | -48.6°C | 0.3% | 78.9hPa | 2.5V | 18:12:15 | 01:40:16 | 00:00:00 | |
| DJ2DS-15 | 2026-09-01 00:32:34 | 56.51622 | 3.96564 | 81° | 22km/h | 17959m | 3.9m/s | -48.5°C | 3.4% | 78.8hPa | 2.5V | 00:00:00 | 01:40:16 | 00:00:00 | |
| DM0DOS-11 | 2026-09-01 00:32:33 | 56.51618 | 3.96529 | 73° | 29km/h | 17946m | 3.8m/s | -48.5°C | 3.4% | 79hPa | 2.5V | 08:30:00 | 01:40:13 | 00:00:00 | |
| DL1XH-west | 2026-09-01 00:32:23 | 56.51604 | 3.96448 | 68° | 20km/h | 17912m | 4.5m/s | -48.6°C | 0.3% | 79.4hPa | 2.6V | 18:12:15 | 01:40:05 | 00:00:00 | |
| DM0DOS-11 | 2026-09-01 00:32:22 | 56.51600 | 3.96432 | 56° | 20km/h | 17903m | 4.8m/s | -48.6°C | 3.4% | 79.5hPa | 2.5V | 08:30:00 | 01:40:03 | 00:00:00 | |
| DM0DOS-11 | 2026-09-01 00:32:15 | 56.51573 | 3.96351 | 66° | 20km/h | 17862m | 5m/s | -48.3°C | 3.3% | 80hPa | 2.6V | 08:30:00 | 01:39:53 | 00:00:00 | |
| DL1XH-west | 2026-09-01 00:32:12 | 56.51575 | 3.96360 | 71° | 20km/h | 17866m | 3.8m/s | -48.3°C | 0.3% | 80hPa | 2.5V | 18:12:15 | 01:39:54 | 00:00:00 | |
| DM0DOS-11 | 2026-09-01 00:32:04 | 56.51555 | 3.96286 | 70° | 18km/h | 17819m | 4.2m/s | -48.3°C | 3.3% | 80.5hPa | 2.5V | 08:30:00 | 01:39:43 | 00:00:00 | |
| DL1XH-west | 2026-09-01 00:32:02 | 56.51557 | 3.96293 | 72° | 16km/h | 17823m | 4.1m/s | -48.2°C | 0.2% | 80.5hPa | 2.6V | 18:12:15 | 01:39:44 | 00:00:00 | |
| DJ2DS-15 | 2026-09-01 00:31:59 | 56.51552 | 3.96270 | 71° | 18km/h | 17811m | 3.3m/s | -48.4°C | 1.0% | 80.6hPa | 2.6V | 00:00:00 | 00:00:00 | 00:00:00 | |
| DM0DOS-11 | 2026-09-01 00:31:54 | 56.51548 | 3.96211 | 72° | 15km/h | 17779m | 4.2m/s | -48.3°C | 3.2% | 81hPa | 2.6V | 08:30:00 | 01:39:33 | 00:00:00 | |
| DL1XH-west | 2026-09-01 00:31:52 | 56.51549 | 3.96217 | 83° | 13km/h | 17782m | 2.5m/s | -48.3°C | 0.2% | 81hPa | 2.6V | 18:12:15 | 01:39:34 | 00:00:00 | |
| DM0DOS-11 | 2026-09-01 00:31:43 | 56.51534 | 3.96096 | 82° | 26km/h | 17734m | 3.6m/s | -48.8°C | 3.3% | 81.6hPa | 2.5V | 08:30:00 | 01:39:22 | 00:00:00 | |
| DL1XH-west | 2026-09-01 00:31:41 | 56.51535 | 3.96108 | 83° | 27km/h | 17738m | 4.4m/s | -48.8°C | 0.2% | 81.5hPa | 2.5V | 18:12:15 | 01:39:23 | 00:00:00 | |
| DL1XH-west | 2026-09-01 00:31:31 | 56.51514 | 3.95988 | 70° | 37km/h | 17695m | 3.9m/s | -49.1°C | 0.3% | 82.1hPa | 2.6V | 18:12:15 | 01:39:13 | 00:00:00 | |
| DM0DOS-11 | 2026-09-01 00:31:28 | 56.51503 | 3.95918 | 71° | 44km/h | 17678m | 5.4m/s | -49.1°C | 3.4% | 82.3hPa | 2.5V | 08:30:00 | 01:39:09 | 00:00:00 | |
| DL1XH-west | 2026-09-01 00:31:20 | 56.51474 | 3.95790 | 66° | 46km/h | 17648m | 3.5m/s | -49.2°C | 0.4% | 82.7hPa | 2.5V | 18:12:15 | 01:39:02 | 00:00:00 | |
| DM0DOS-11 | 2026-09-01 00:31:18 | 56.51460 | 3.95735 | 63° | 44km/h | 17634m | 4.8m/s | -49.2°C | 3.4% | 82.8hPa | 2.6V | 08:30:00 | 01:38:59 | 00:00:00 | |
| DL1XH-west | 2026-09-01 00:31:10 | 56.51425 | 3.95619 | 63° | 38km/h | 17605m | 3.8m/s | -49.3°C | 0.3% | 83.2hPa | 2.6V | 18:12:15 | 01:38:52 | 00:00:00 | |
| DM0DOS-11 | 2026-09-01 00:31:08 | 56.51413 | 3.95572 | 63° | 38km/h | 17593m | 3.7m/s | -49.3°C | 3.5% | 83.3hPa | 2.5V | 08:30:00 | 01:38:49 | 00:00:00 | |
| DM0DOS-11 | 2026-09-01 00:31:03 | 56.51362 | 3.95421 | 60° | 33km/h | 17553m | 4.6m/s | -49.5°C | 3.5% | 83.9hPa | 2.5V | 08:30:00 | 01:38:39 | 00:00:00 | |
| DL1XH-west | 2026-09-01 00:30:59 | 56.51371 | 3.95448 | 59° | 37km/h | 17561m | 4.9m/s | -49.3°C | 0.4% | 83.8hPa | 2.6V | 18:12:15 | 01:38:41 | 00:00:00 | |
| DJ2DS-15 | 2026-09-01 00:30:54 | 56.51350 | 3.95380 | 65° | 35km/h | 17540m | 4.8m/s | -49.5°C | 3.5% | 84.0hPa | 2.5V | 00:00:00 | 01:38:36 | 00:00:00 | |
| DM0DOS-11 | 2026-09-01 00:30:52 | 56.51331 | 3.95281 | 76° | 33km/h | 17509m | 2.8m/s | -49.5°C | 3.5% | 84.5hPa | 2.5V | 08:30:00 | 01:38:29 | 00:00:00 | |
| DL1XH-west | 2026-09-01 00:30:49 | 56.51335 | 3.95310 | 74° | 35km/h | 17517m | 5m/s | -49.5°C | 0.4% | 84.3hPa | 2.5V | 18:12:15 | 01:38:31 | 00:00:00 | |
| DJ2DS-15 | 2026-09-01 00:30:47 | 56.51331 | 3.95281 | 76° | 33km/h | 17509m | 2.8m/s | -49.5°C | 1.1% | 84.5hPa | 2.6V | 00:00:00 | 00:00:00 | 00:00:00 | |
| DM0DOS-11 | 2026-09-01 00:30:42 | 56.51305 | 3.95123 | 70° | 38km/h | 17467m | 4.8m/s | -49.3°C | 3.5% | 85hPa | 2.6V | 08:30:00 | 01:38:19 | 00:00:00 | |
| DL1XH-west | 2026-09-01 00:30:38 | 56.51309 | 3.95140 | 70° | 38km/h | 17472m | 3.8m/s | -49.3°C | 0.4% | 84.9hPa | 2.6V | 18:12:15 | 01:38:20 | 00:00:00 | |
| DJ2DS-15 | 2026-09-01 00:30:34 | 56.51295 | 3.95071 | 71° | 42km/h | 17454m | 3.7m/s | -49.3°C | 3.5% | 85.1hPa | 2.5V | 00:00:00 | 01:38:16 | 00:00:00 | |
| DM0DOS-11 | 2026-09-01 00:30:32 | 56.51271 | 3.94950 | 71° | 38km/h | 17423m | 4.9m/s | -49.3°C | 3.5% | 85.6hPa | 2.5V | 08:30:00 | 01:38:09 | 00:00:00 | |
| DL1XH-west | 2026-09-01 00:30:28 | 56.51274 | 3.94967 | 74° | 40km/h | 17427m | 4m/s | -49.3°C | 0.4% | 85.5hPa | 2.5V | 18:12:15 | 01:38:10 | 00:00:00 | |
| DM0DOS-11 | 2026-09-01 00:30:22 | 56.51236 | 3.94761 | 73° | 46km/h | 17379m | 3.9m/s | -49.2°C | 3.5% | 86.2hPa | 2.6V | 08:30:00 | 01:37:59 | 00:00:00 | |
| DL1XH-west | 2026-09-01 00:30:18 | 56.51236 | 3.94761 | 74° | 46km/h | 17379m | 3.9m/s | -49.2°C | 0.4% | 86.2hPa | 2.6V | 18:12:15 | 01:37:59 | 00:00:00 | |
| DJ2DS-15 | 2026-09-01 00:30:14 | 56.51228 | 3.94703 | 77° | 47km/h | 17366m | 5.0m/s | -49.1°C | 3.5% | 86.3hPa | 2.5V | 00:00:00 | 01:37:56 | 00:00:00 | |
| DM0DOS-11 | 2026-09-01 00:30:12 | 56.51202 | 3.94562 | 68° | 51km/h | 17336m | 4.1m/s | -49°C | 3.5% | 86.7hPa | 2.5V | 08:30:00 | 01:37:49 | 00:00:00 | |
| DL1XH-west | 2026-09-01 00:30:07 | 56.51197 | 3.94540 | 68° | 51km/h | 17331m | 5m/s | -48.9°C | 0.3% | 86.8hPa | 2.5V | 18:12:15 | 01:37:48 | 00:00:00 | |
| DM0DOS-11 | 2026-09-01 00:30:01 | 56.51151 | 3.94311 | 63° | 49km/h | 17282m | 4.3m/s | -49°C | 3.5% | 87.4hPa | 2.6V | 08:30:00 | 01:37:37 | 00:00:00 | |
| DL1XH-west | 2026-09-01 00:29:56 | 56.51156 | 3.94331 | 65° | 49km/h | 17287m | 5.4m/s | -49°C | 0.3% | 87.4hPa | 2.6V | 18:12:15 | 01:37:38 | 00:00:00 | |
| DL1XH-west | 2026-09-01 00:29:45 | 56.51100 | 3.94107 | 66° | 44km/h | 17239m | 4.8m/s | -48.8°C | 0.3% | 88hPa | 2.5V | 18:12:15 | 01:37:27 | 00:00:00 | |
| DL1XH-west | 2026-09-01 00:29:35 | 56.51037 | 3.93908 | 64° | 44km/h | 17191m | 4.1m/s | -48.9°C | 0.3% | 88.7hPa | 2.6V | 18:12:15 | 01:37:16 | 00:00:00 | |
| DJ2DS-15 | 2026-09-01 00:29:34 | 56.51037 | 3.93908 | 64° | 44km/h | 17191m | 4.1m/s | -48.9°C | 3.4% | 88.6hPa | 2.5V | 00:00:00 | 01:37:16 | 00:00:00 | |
| DM0DOS-11 | 2026-09-01 00:29:28 | 56.50969 | 3.93714 | 55° | 42km/h | 17142m | 4.5m/s | -48.6°C | 3.4% | 89.3hPa | 2.5V | 08:30:00 | 01:37:05 | 00:00:00 | |
| DL1XH-west | 2026-09-01 00:29:23 | 56.50969 | 3.93714 | 55° | 42km/h | 17142m | 4.5m/s | -48.7°C | 0.3% | 89.3hPa | 2.5V | 18:12:15 | 01:37:05 | 00:00:00 | |
| DL1XH-west | 2026-09-01 00:29:13 | 56.50913 | 3.93546 | 55° | 37km/h | 17093m | 3.2m/s | -48.9°C | 0.3% | 90hPa | 2.5V | 18:12:15 | 01:36:54 | 00:00:00 | |
| DM0DOS-11 | 2026-09-01 00:29:10 | 56.50876 | 3.93441 | 60° | 38km/h | 17063m | 4.4m/s | -48.9°C | 3.5% | 90.4hPa | 2.5V | 08:30:00 | 01:36:47 | 00:00:00 | |
| DL1XH-west | 2026-09-01 00:29:02 | 56.50863 | 3.93390 | 65° | 42km/h | 17050m | 4.4m/s | -48.9°C | 0.3% | 90.5hPa | 2.5V | 18:12:15 | 01:36:44 | 00:00:00 | |
| DJ2DS-15 | 2026-09-01 00:28:54 | 56.50829 | 3.93253 | 67° | 38km/h | 17016m | 5.0m/s | -48.6°C | 3.3% | 91.0hPa | 2.6V | 00:00:00 | 01:36:36 | 08:30:00 | |
| DM0DOS-11 | 2026-09-01 00:28:53 | 56.50821 | 3.93218 | 69° | 40km/h | 17007m | 4m/s | -48.6°C | 3.3% | 91.2hPa | 2.6V | 08:30:00 | 01:36:34 | 00:00:00 | |
| DL1XH-west | 2026-09-01 00:28:51 | 56.50817 | 3.93200 | 69° | 42km/h | 17002m | 5.5m/s | -48.5°C | 0.2% | 91.2hPa | 2.5V | 18:12:15 | 01:36:33 | 00:00:00 | |
| DM0DOS-11 | 2026-09-01 00:28:46 | 56.50777 | 3.93034 | 65° | 37km/h | 16953m | 5.2m/s | -48.7°C | 3.4% | 91.9hPa | 2.6V | 08:30:00 | 01:36:22 | 00:00:00 | |
| DL1XH-west | 2026-09-01 00:28:40 | 56.50777 | 3.93034 | 66° | 37km/h | 16953m | 5.2m/s | -48.7°C | 0.3% | 91.9hPa | 2.6V | 18:12:15 | 01:36:22 | 00:00:00 | |
| DL1XH-west | 2026-09-01 00:28:30 | 56.50742 | 3.92848 | 72° | 37km/h | 16903m | 4.2m/s | -49.1°C | 0.3% | 92.6hPa | 2.5V | 18:12:15 | 01:36:11 | 00:00:00 | |
| DL1XH-west | 2026-09-01 00:28:19 | 56.50713 | 3.92689 | 69° | 31km/h | 16857m | 4m/s | -48.9°C | 0.3% | 93.3hPa | 2.6V | 18:12:15 | 01:36:01 | 00:00:00 | |
| DJ2DS-15 | 2026-09-01 00:28:14 | 56.50702 | 3.92626 | 70° | 29km/h | 16834m | 3.1m/s | -48.9°C | 3.4% | 93.6hPa | 2.6V | 00:00:00 | 01:35:56 | 00:00:00 | |
| DM0DOS-11 | 2026-09-01 00:28:12 | 56.50693 | 3.92575 | 66° | 31km/h | 16817m | 5.3m/s | -49.1°C | 3.5% | 93.8hPa | 2.6V | 08:30:00 | 01:35:52 | 00:00:00 | |
| DL1XH-west | 2026-09-01 00:28:09 | 56.50686 | 3.92550 | 60° | 31km/h | 16808m | 3.8m/s | -49.1°C | 0.4% | 94hPa | 2.5V | 18:12:15 | 01:35:50 | 00:00:00 | |
| DL1XH-west | 2026-09-01 00:27:58 | 56.50654 | 3.92427 | 67° | 24km/h | 16764m | 3.2m/s | -48.8°C | 0.2% | 94.6hPa | 2.6V | 18:12:15 | 01:35:40 | 00:00:00 | |
| DM0DOS-11 | 2026-09-01 00:27:57 | 56.50650 | 3.92406 | 73° | 27km/h | 16755m | 4.2m/s | -48.8°C | 3.5% | 94.7hPa | 2.6V | 08:30:00 | 01:35:38 | 00:00:00 | |
| DL1XH-west | 2026-09-01 00:27:47 | 56.50629 | 3.92290 | 78° | 22km/h | 16716m | 3.8m/s | -48.5°C | 0.3% | 95.3hPa | 2.5V | 18:12:15 | 01:35:29 | 00:00:00 | |
| DM0DOS-11 | 2026-09-01 00:27:47 | 56.50618 | 3.92219 | 69° | 31km/h | 16690m | 4.8m/s | -48.4°C | 3.3% | 95.7hPa | 2.5V | 08:30:00 | 01:35:23 | 00:00:00 | |
| DJ2DS-15 | 2026-09-01 00:27:47 | 56.50628 | 3.92279 | 81° | 22km/h | 16711m | 4.8m/s | -48.4°C | 1.1% | 95.4hPa | 2.6V | 00:00:00 | 00:00:00 | 00:00:00 | |
| DL1XH-west | 2026-09-01 00:27:36 | 56.50604 | 3.92150 | 75° | 31km/h | 16668m | 5m/s | -48.3°C | 0.2% | 96hPa | 2.6V | 18:12:15 | 01:35:18 | 00:00:00 | |
| DM0DOS-11 | 2026-09-01 00:27:36 | 56.50597 | 3.92085 | 80° | 31km/h | 16647m | 4.9m/s | -48.2°C | 3.4% | 96.3hPa | 2.5V | 08:30:00 | 01:35:13 | 00:00:00 | |
| DJ2DS-15 | 2026-09-01 00:27:34 | 56.50601 | 3.92123 | 80° | 33km/h | 16659m | 4.6m/s | -48.1°C | 3.3% | 96.1hPa | 2.6V | 00:00:00 | 01:35:16 | 00:00:00 | |
| DM0DOS-11 | 2026-09-01 00:27:26 | 56.50579 | 3.91946 | 84° | 31km/h | 16602m | 4.2m/s | -48.5°C | 3.3% | 97hPa | 2.6V | 08:30:00 | 01:35:03 | 00:00:00 | |
| DL1XH-west | 2026-09-01 00:27:26 | 56.50586 | 3.91998 | 75° | 31km/h | 16620m | 4m/s | -48.4°C | 0.3% | 96.7hPa | 2.5V | 18:12:15 | 01:35:07 | 00:00:00 | |
| DM0DOS-11 | 2026-09-01 00:27:16 | 56.50563 | 3.91767 | 77° | 38km/h | 16554m | 3.7m/s | -48.5°C | 3.4% | 97.7hPa | 2.5V | 08:30:00 | 01:34:52 | 00:00:00 | |
| DL1XH-west | 2026-09-01 00:27:15 | 56.50572 | 3.91834 | 79° | 38km/h | 16572m | 5.3m/s | -48.5°C | 0.3% | 97.4hPa | 2.6V | 18:12:15 | 01:34:56 | 00:00:00 | |
| DL1XH-west | 2026-09-01 00:27:04 | 56.50553 | 3.91668 | 83° | 37km/h | 16527m | 5.1m/s | -48.4°C | 0.2% | 98.1hPa | 2.5V | 18:12:15 | 01:34:46 | 00:00:00 | |
| DM0DOS-11 | 2026-09-01 00:27:04 | 56.50549 | 3.91598 | 83° | 40km/h | 16509m | 4.4m/s | -48.5°C | 3.4% | 98.3hPa | 2.6V | 08:30:00 | 01:34:42 | 00:00:00 | |
| DM0DOS-11 | 2026-09-01 00:26:54 | 56.50530 | 3.91413 | 84° | 40km/h | 16466m | 3.6m/s | -48.8°C | 3.3% | 99hPa | 2.5V | 08:30:00 | 01:34:32 | 00:00:00 | |
| DL1XH-west | 2026-09-01 00:26:54 | 56.50535 | 3.91467 | 76° | 40km/h | 16479m | 3.2m/s | -48.6°C | 0.3% | 98.8hPa | 2.6V | 18:12:15 | 01:34:35 | 00:00:00 | |
| DM0DOS-11 | 2026-09-01 00:26:44 | 56.50515 | 3.91229 | 72° | 46km/h | 16424m | 3.4m/s | -49°C | 3.4% | 99.7hPa | 2.6V | 08:30:00 | 01:34:22 | 00:00:00 | |
| DL1XH-west | 2026-09-01 00:26:43 | 56.50524 | 3.91286 | 76° | 42km/h | 16436m | 3.4m/s | -48.9°C | 0.4% | 99.5hPa | 2.5V | 18:12:15 | 01:34:25 | 00:00:00 | |
| DL1XH-west | 2026-09-01 00:26:33 | 56.50490 | 3.91088 | 69° | 38km/h | 16389m | 3.7m/s | -49.1°C | 0.4% | 100.2hPa | 2.6V | 18:12:15 | 01:34:14 | 00:00:00 | |
| DM0DOS-11 | 2026-09-01 00:26:28 | 56.50471 | 3.91001 | 63° | 42km/h | 16368m | 3.2m/s | -49.2°C | 3.5% | 100.5hPa | 2.6V | 08:30:00 | 01:34:09 | 00:00:00 | |
| DL1XH-west | 2026-09-01 00:26:22 | 56.50450 | 3.90917 | 63° | 37km/h | 16346m | 3.6m/s | -49.2°C | 0.4% | 100.8hPa | 2.5V | 18:12:15 | 01:34:04 | 00:00:00 | |
| DL1XH-west | 2026-09-01 00:26:12 | 56.50409 | 3.90758 | 66° | 42km/h | 16304m | 3.8m/s | -49°C | 0.4% | 101.5hPa | 2.6V | 18:12:15 | 01:33:54 | 00:00:00 | |
| DM0DOS-11 | 2026-09-01 00:26:03 | 56.50350 | 3.90507 | 66° | 35km/h | 16241m | 4.3m/s | -49.1°C | 3.5% | 102.5hPa | 2.6V | 08:30:00 | 01:33:39 | 00:00:00 | |
| DL1XH-west | 2026-09-01 00:26:02 | 56.50364 | 3.90568 | 62° | 38km/h | 16257m | 3.6m/s | -49°C | 0.4% | 102.2hPa | 2.5V | 18:12:15 | 01:33:43 | 00:00:00 | |
| DJ2DS-15 | 2026-09-01 00:25:58 | 56.50353 | 3.90522 | 68° | 35km/h | 16245m | 3.9m/s | -49.0°C | 1.1% | 102.4hPa | 2.5V | 00:00:00 | 00:00:00 | 00:00:00 | |
| DJ2DS-15 | 2026-09-01 00:25:54 | 56.50339 | 3.90462 | 69° | 44km/h | 16229m | 4.4m/s | -49.0°C | 3.5% | 102.6hPa | 2.5V | 00:00:00 | 01:33:36 | 08:30:00 | |
| DM0DOS-11 | 2026-09-01 00:25:52 | 56.50310 | 3.90343 | 66° | 44km/h | 16198m | 4.7m/s | -49.1°C | 3.6% | 103.1hPa | 2.5V | 08:30:00 | 01:33:29 | 00:00:00 | |
| DL1XH-west | 2026-09-01 00:25:51 | 56.50328 | 3.90414 | 63° | 40km/h | 16215m | 3.8m/s | -49.1°C | 0.4% | 102.9hPa | 2.6V | 18:12:15 | 01:33:33 | 00:00:00 | |
| DM0DOS-11 | 2026-09-01 00:25:42 | 56.50260 | 3.90156 | 64° | 42km/h | 16154m | 3.4m/s | -48.8°C | 3.4% | 103.8hPa | 2.6V | 08:30:00 | 01:33:19 | 00:00:00 | |
| DL1XH-west | 2026-09-01 00:25:41 | 56.50275 | 3.90210 | 64° | 46km/h | 16168m | 4.8m/s | -48.9°C | 0.3% | 103.6hPa | 2.5V | 18:12:15 | 01:33:22 | 00:00:00 | |
| DL1XH-west | 2026-09-01 00:25:30 | 56.50230 | 3.90010 | 69° | 44km/h | 16119m | 4.4m/s | -48.5°C | 0.3% | 104.4hPa | 2.6V | 18:12:15 | 01:33:11 | 00:00:00 | |
| DM0DOS-11 | 2026-09-01 00:25:29 | 56.50222 | 3.89973 | 67° | 44km/h | 16110m | 3.9m/s | -48.4°C | 3.3% | 104.5hPa | 2.5V | 08:30:00 | 01:33:09 | 00:00:00 | |
| DJ2DS-15 | 2026-09-01 00:25:22 | 56.50204 | 3.89879 | 74° | 38km/h | 16088m | 5.1m/s | -48.3°C | 1.1% | 104.9hPa | 2.6V | 00:00:00 | 00:00:00 | 00:00:00 | |
| DM0DOS-11 | 2026-09-01 00:25:19 | 56.50190 | 3.89793 | 72° | 42km/h | 16067m | 4.4m/s | -48.4°C | 3.3% | 105.2hPa | 2.6V | 08:30:00 | 01:32:59 | 00:00:00 | |
| DL1XH-west | 2026-09-01 00:25:18 | 56.50194 | 3.89811 | 73° | 42km/h | 16071m | 3.6m/s | -48.3°C | 0.1% | 105.1hPa | 2.5V | 18:12:15 | 01:33:00 | 00:00:00 | |
| DJ2DS-15 | 2026-09-01 00:25:14 | 56.50180 | 3.89736 | 71° | 42km/h | 16055m | 4.9m/s | -48.4°C | 3.4% | 105.4hPa | 2.5V | 00:00:00 | 01:32:56 | 00:00:00 | |
| DM0DOS-11 | 2026-09-01 00:25:09 | 56.50156 | 3.89606 | 77° | 40km/h | 16024m | 4.4m/s | -48.5°C | 3.3% | 105.9hPa | 2.5V | 08:30:00 | 01:32:49 | 00:00:00 | |
| DL1XH-west | 2026-09-01 00:25:09 | 56.50159 | 3.89624 | 75° | 40km/h | 16029m | 4.1m/s | -48.5°C | 0.4% | 105.9hPa | 2.6V | 18:12:15 | 01:32:50 | 00:00:00 | |
| DL1XH-west | 2026-09-01 00:24:58 | 56.50132 | 3.89415 | 72° | 40km/h | 15983m | 4.5m/s | -48.5°C | 0.2% | 106.6hPa | 2.5V | 18:12:15 | 01:32:39 | 00:00:00 | |
| DM0DOS-11 | 2026-09-01 00:24:58 | 56.50132 | 3.89415 | 72° | 40km/h | 15983m | 4.5m/s | -48.5°C | 3.3% | 106.6hPa | 2.5V | 08:30:00 | 01:32:39 | 00:00:00 | |
| DJ2DS-15 | 2026-09-01 00:24:54 | 56.50123 | 3.89362 | 71° | 40km/h | 15970m | 4.7m/s | -48.5°C | 3.3% | 106.7hPa | 2.6V | 00:00:00 | 01:32:36 | 00:00:00 | |
| DM0DOS-11 | 2026-09-01 00:24:48 | 56.50101 | 3.89227 | 73° | 42km/h | 15939m | 4.6m/s | -48.8°C | 3.5% | 107.3hPa | 2.6V | 08:30:00 | 01:32:29 | 00:00:00 | |
| DL1XH-west | 2026-09-01 00:24:48 | 56.50104 | 3.89246 | 72° | 46km/h | 15943m | 4m/s | -48.8°C | 0.4% | 107.2hPa | 2.6V | 18:12:15 | 01:32:30 | 00:00:00 | |
| DM0DOS-11 | 2026-09-01 00:24:38 | 56.50068 | 3.89077 | 67° | 38km/h | 15896m | 4.2m/s | -48.9°C | 3.4% | 108hPa | 2.5V | 08:30:00 | 01:32:19 | 00:00:00 | |
| DL1XH-west | 2026-09-01 00:24:37 | 56.50068 | 3.89077 | 68° | 38km/h | 15896m | 4.2m/s | -48.9°C | 0.3% | 108hPa | 2.5V | 18:12:15 | 01:32:19 | 00:00:00 | |
| DJ2DS-15 | 2026-09-01 00:24:34 | 56.50057 | 3.89023 | 70° | 44km/h | 15883m | 4.7m/s | -48.9°C | 3.4% | 108.2hPa | 2.6V | 00:00:00 | 01:32:16 | 00:00:00 | |
| DM0DOS-11 | 2026-09-01 00:24:28 | 56.50031 | 3.88891 | 76° | 42km/h | 15852m | 4.5m/s | -48.9°C | 3.4% | 108.7hPa | 2.6V | 08:30:00 | 01:32:09 | 00:00:00 | |
| DL1XH-west | 2026-09-01 00:24:27 | 56.50029 | 3.88872 | 78° | 42km/h | 15848m | 4.3m/s | -48.9°C | 0.4% | 108.8hPa | 2.6V | 18:12:15 | 01:32:08 | 00:00:00 | |
| DM0DOS-11 | 2026-09-01 00:24:18 | 56.50003 | 3.88694 | 74° | 47km/h | 15808m | 3.3m/s | -48.8°C | 3.4% | 109.5hPa | 2.5V | 08:30:00 | 01:31:59 | 00:00:00 | |
| DL1XH-west | 2026-09-01 00:24:15 | 56.49997 | 3.88652 | 79° | 47km/h | 15800m | 4.4m/s | -48.9°C | 0.2% | 109.6hPa | 2.5V | 18:12:15 | 01:31:57 | 00:00:00 | |
| DJ2DS-15 | 2026-09-01 00:24:14 | 56.49995 | 3.88630 | 81° | 51km/h | 15796m | 3.1m/s | -48.8°C | 3.3% | 109.6hPa | 2.6V | 00:00:00 | 01:31:56 | 00:00:00 | |
| DM0DOS-11 | 2026-09-01 00:24:08 | 56.49980 | 3.88479 | 77° | 47km/h | 15765m | 3.8m/s | -49.3°C | 3.4% | 110.2hPa | 2.6V | 08:30:00 | 01:31:49 | 00:00:00 | |
| DL1XH-west | 2026-09-01 00:24:04 | 56.49972 | 3.88412 | 77° | 53km/h | 15752m | 5.1m/s | -49.4°C | 0.3% | 110.4hPa | 2.5V | 18:12:15 | 01:31:46 | 00:00:00 | |
| DM0DOS-11 | 2026-09-01 00:23:58 | 56.49947 | 3.88240 | 67° | 55km/h | 15721m | 3.9m/s | -49.5°C | 3.6% | 110.9hPa | 2.5V | 08:30:00 | 01:31:39 | 00:00:00 | |
| DL1XH-west | 2026-09-01 00:23:54 | 56.49929 | 3.88149 | 71° | 53km/h | 15705m | 4.2m/s | -49.6°C | 0.4% | 111.2hPa | 2.6V | 18:12:15 | 01:31:35 | 00:00:00 | |
| DM0DOS-11 | 2026-09-01 00:23:48 | 56.49899 | 3.88006 | 62° | 55km/h | 15677m | 3.4m/s | -49.4°C | 3.5% | 111.7hPa | 2.5V | 08:30:00 | 01:31:29 | 00:00:00 | |
| DL1XH-west | 2026-09-01 00:23:43 | 56.49875 | 3.87921 | 63° | 47km/h | 15661m | 4.9m/s | -49.4°C | 0.4% | 112hPa | 2.5V | 18:12:15 | 01:31:25 | 00:00:00 | |
| DM0DOS-11 | 2026-09-01 00:23:42 | 56.49848 | 3.87809 | 68° | 46km/h | 15634m | 4m/s | -49.3°C | 3.5% | 112.4hPa | 2.6V | 08:30:00 | 01:31:19 | 00:00:00 | |
| DL1XH-west | 2026-09-01 00:23:33 | 56.49829 | 3.87726 | 64° | 49km/h | 15616m | 4.6m/s | -49.2°C | 0.3% | 112.7hPa | 2.5V | 18:12:15 | 01:31:15 | 00:00:00 | |
| DL1XH-west | 2026-09-01 00:23:22 | 56.49772 | 3.87526 | 61° | 44km/h | 15567m | 4.2m/s | -48.9°C | 0.4% | 113.6hPa | 2.5V | 18:12:15 | 01:31:04 | 00:00:00 | |
| DM0DOS-11 | 2026-09-01 00:23:22 | 56.49744 | 3.87436 | 57° | 46km/h | 15544m | 3.6m/s | -48.8°C | 3.4% | 114hPa | 2.6V | 08:30:00 | 01:30:59 | 00:00:00 | |
| DL1XH-west | 2026-09-01 00:23:11 | 56.49710 | 3.87327 | 60° | 44km/h | 15519m | 3.6m/s | -48.7°C | 0.3% | 114.4hPa | 2.6V | 18:12:15 | 01:30:53 | 00:00:00 | |
| DM0DOS-11 | 2026-09-01 00:23:11 | 56.49682 | 3.87242 | 55° | 42km/h | 15498m | 3.6m/s | -48.7°C | 3.4% | 114.8hPa | 2.5V | 08:30:00 | 01:30:48 | 00:00:00 | |
| DL1XH-west | 2026-09-01 00:23:00 | 56.49649 | 3.87145 | 63° | 38km/h | 15473m | 4.4m/s | -48.7°C | 0.4% | 115.2hPa | 2.5V | 18:12:15 | 01:30:42 | 00:00:00 | |
| DM0DOS-11 | 2026-09-01 00:22:59 | 56.49630 | 3.87091 | 53° | 31km/h | 15456m | 4m/s | -48.6°C | 3.4% | 115.5hPa | 2.6V | 08:30:00 | 01:30:38 | 00:00:00 | |
| DL1XH-west | 2026-09-01 00:22:49 | 56.49600 | 3.87003 | 60° | 27km/h | 15424m | 4.4m/s | -48.6°C | 0.3% | 116.1hPa | 2.6V | 18:12:15 | 01:30:31 | 00:00:00 | |
| DM0DOS-11 | 2026-09-01 00:22:47 | 56.49570 | 3.86928 | 49° | 31km/h | 15393m | 4.4m/s | -48.5°C | 3.3% | 116.7hPa | 2.6V | 08:30:00 | 01:30:24 | 00:00:00 | |
| DL1XH-west | 2026-09-01 00:22:39 | 56.49556 | 3.86896 | 53° | 27km/h | 15381m | 4.2m/s | -48.4°C | 0.3% | 116.9hPa | 2.5V | 18:12:15 | 01:30:21 | 00:00:00 | |
| DJ2DS-15 | 2026-09-01 00:22:34 | 56.49539 | 3.86841 | 64° | 24km/h | 15359m | 4.1m/s | -48.4°C | 3.4% | 117.2hPa | 2.5V | 00:00:00 | 01:30:16 | 00:00:00 | |
| DM0DOS-11 | 2026-09-01 00:22:31 | 56.49528 | 3.86798 | 64° | 27km/h | 15341m | 4.3m/s | -48.5°C | 3.3% | 117.6hPa | 2.5V | 08:30:00 | 01:30:12 | 00:00:00 | |
| DL1XH-west | 2026-09-01 00:22:29 | 56.49512 | 3.86738 | 70° | 22km/h | 15314m | 3.4m/s | -48.9°C | 0.3% | 118.1hPa | 2.5V | 18:12:15 | 01:30:06 | 00:00:00 | |
| DM0DOS-11 | 2026-09-01 00:22:21 | 56.49508 | 3.86699 | 80° | 22km/h | 15297m | 5.2m/s | -49°C | 3.4% | 118.4hPa | 2.6V | 08:30:00 | 01:30:02 | 00:00:00 | |
| DL1XH-west | 2026-09-01 00:22:18 | 56.49504 | 3.86670 | 79° | 24km/h | 15285m | 4.7m/s | -48.9°C | 0.3% | 118.6hPa | 2.5V | 18:12:15 | 01:29:59 | 00:00:00 | |
| DJ2DS-15 | 2026-09-01 00:22:14 | 56.49499 | 3.86635 | 70° | 29km/h | 15272m | 4.7m/s | -48.9°C | 3.4% | 118.8hPa | 2.5V | 00:00:00 | 01:29:56 | 00:00:00 | |
| DM0DOS-11 | 2026-09-01 00:22:11 | 56.49490 | 3.86577 | 74° | 24km/h | 15251m | 4.8m/s | -49°C | 3.4% | 119.2hPa | 2.5V | 08:30:00 | 01:29:51 | 00:00:00 | |
| DL1XH-west | 2026-09-01 00:22:07 | 56.49485 | 3.86557 | 65° | 24km/h | 15243m | 4.3m/s | -49°C | 0.3% | 119.3hPa | 2.6V | 18:12:15 | 01:29:49 | 00:00:00 | |
| DM0DOS-11 | 2026-09-01 00:22:01 | 56.49448 | 3.86448 | 55° | 31km/h | 15204m | 3.4m/s | -49.3°C | 3.5% | 120.1hPa | 2.5V | 08:30:00 | 01:29:40 | 00:00:00 | |
| DL1XH-west | 2026-09-01 00:21:57 | 56.49443 | 3.86436 | 59° | 31km/h | 15200m | 3.7m/s | -49.3°C | 0.5% | 120.1hPa | 2.5V | 18:12:15 | 01:29:39 | 00:00:00 | |
| DL1XH-west | 2026-09-01 00:21:46 | 56.49403 | 3.86303 | 62° | 31km/h | 15155m | 4.6m/s | -49.8°C | 0.5% | 121hPa | 2.6V | 18:12:15 | 01:29:28 | 00:00:00 | |
| DM0DOS-11 | 2026-09-01 00:21:45 | 56.49394 | 3.86262 | 70° | 31km/h | 15142m | 4.3m/s | -49.9°C | 3.6% | 121.2hPa | 2.5V | 08:30:00 | 01:29:25 | 00:00:00 | |
| DL1XH-west | 2026-09-01 00:21:35 | 56.49374 | 3.86148 | 65° | 35km/h | 15110m | 3.3m/s | -49.9°C | 0.5% | 121.8hPa | 2.5V | 18:12:15 | 01:29:17 | 00:00:00 | |
| DL1XH-west | 2026-09-01 00:21:25 | 56.49341 | 3.85987 | 68° | 42km/h | 15071m | 4.4m/s | -49.9°C | 0.7% | 122.5hPa | 2.6V | 18:12:15 | 01:29:07 | 00:00:00 | |
| DL1XH-west | 2026-09-01 00:21:16 | 56.49283 | 3.85733 | 66° | 42km/h | 15010m | 4.2m/s | -49.7°C | 0.6% | 123.7hPa | 2.6V | 18:12:15 | 01:28:52 | 00:00:00 | |
| DL1XH-west | 2026-09-01 00:21:00 | 56.49242 | 3.85558 | 66° | 40km/h | 14970m | 3.7m/s | -49.4°C | 0.5% | 124.5hPa | 2.5V | 18:12:15 | 01:28:42 | 00:00:00 | |
| DJ2DS-15 | 2026-09-01 00:20:54 | 56.49217 | 3.85463 | 65° | 38km/h | 14944m | 4.1m/s | -49.2°C | 3.6% | 124.8hPa | 2.5V | 00:00:00 | 01:28:36 | 00:00:00 | |
| DM0DOS-11 | 2026-09-01 00:20:53 | 56.49194 | 3.85359 | 68° | 44km/h | 14918m | 4.5m/s | -49.1°C | 3.6% | 125.4hPa | 2.5V | 08:30:00 | 01:28:30 | 00:00:00 | |
| DL1XH-west | 2026-09-01 00:20:50 | 56.49199 | 3.85378 | 68° | 46km/h | 14922m | 3.2m/s | -49.2°C | 0.4% | 125.3hPa | 2.6V | 18:12:15 | 01:28:31 | 00:00:00 | |
| DM0DOS-11 | 2026-09-01 00:20:42 | 56.49158 | 3.85200 | 62° | 35km/h | 14879m | 3.1m/s | -48.9°C | 3.5% | 126.2hPa | 2.5V | 08:30:00 | 01:28:20 | 00:00:00 | |
| DL1XH-west | 2026-09-01 00:20:39 | 56.49162 | 3.85215 | 66° | 35km/h | 14883m | 4.7m/s | -48.9°C | 0.4% | 126.1hPa | 2.5V | 18:12:15 | 01:28:21 | 00:00:00 | |
| DJ2DS-15 | 2026-09-01 00:20:34 | 56.49140 | 3.85122 | 67° | 35km/h | 14858m | 4.1m/s | -49.0°C | 1.2% | 126.6hPa | 2.5V | 00:00:00 | 00:00:00 | 00:00:00 | |
| DM0DOS-11 | 2026-09-01 00:20:30 | 56.49116 | 3.85010 | 68° | 37km/h | 14824m | 3.9m/s | -49°C | 3.4% | 127.2hPa | 2.5V | 08:30:00 | 01:28:07 | 00:00:00 | |
| DL1XH-west | 2026-09-01 00:20:29 | 56.49128 | 3.85066 | 72° | 31km/h | 14841m | 4.4m/s | -49°C | 0.4% | 126.9hPa | 2.6V | 18:12:15 | 01:28:11 | 00:00:00 | |
| DM0DOS-11 | 2026-09-01 00:20:19 | 56.49092 | 3.84871 | 81° | 26km/h | 14782m | 3.9m/s | -48.8°C | 3.5% | 128.1hPa | 2.6V | 08:30:00 | 01:27:57 | 00:00:00 | |
| DL1XH-west | 2026-09-01 00:20:18 | 56.49095 | 3.84905 | 80° | 27km/h | 14795m | 4.5m/s | -48.9°C | 0.4% | 127.8hPa | 2.5V | 18:12:15 | 01:28:00 | 00:00:00 | |
| DL1XH-west | 2026-09-01 00:20:07 | 56.49075 | 3.84772 | 72° | 29km/h | 14747m | 4m/s | -48.9°C | 0.4% | 128.7hPa | 2.6V | 18:12:15 | 01:27:49 | 00:00:00 | |
| DM0DOS-11 | 2026-09-01 00:20:05 | 56.49070 | 3.84732 | 78° | 29km/h | 14735m | 4.2m/s | -48.9°C | 3.5% | 128.9hPa | 2.5V | 08:30:00 | 01:27:46 | 00:00:00 | |
| DM0DOS-11 | 2026-09-01 00:19:59 | 56.49054 | 3.84600 | 72° | 31km/h | 14693m | 4.2m/s | -48.6°C | 3.4% | 129.8hPa | 2.6V | 08:30:00 | 01:27:36 | 00:00:00 | |
| DL1XH-west | 2026-09-01 00:19:58 | 56.49060 | 3.84642 | 78° | 29km/h | 14705m | 3.4m/s | -48.8°C | 0.4% | 129.6hPa | 2.5V | 18:12:15 | 01:27:39 | 00:00:00 | |
| DL1XH-west | 2026-09-01 00:19:46 | 56.49038 | 3.84487 | 83° | 33km/h | 14661m | 4.5m/s | -48.4°C | 0.4% | 130.4hPa | 2.6V | 18:12:15 | 01:27:28 | 00:00:00 | |
| DM0DOS-11 | 2026-09-01 00:19:45 | 56.49036 | 3.84457 | 84° | 35km/h | 14652m | 3.9m/s | -48.4°C | 3.4% | 130.6hPa | 2.5V | 08:30:00 | 01:27:26 | 00:00:00 | |
| DM0DOS-11 | 2026-09-01 00:19:40 | 56.49028 | 3.84297 | 83° | 38km/h | 14608m | 3.1m/s | -48.2°C | 3.3% | 131.5hPa | 2.6V | 08:30:00 | 01:27:16 | 00:00:00 | |
| DL1XH-west | 2026-09-01 00:19:36 | 56.49029 | 3.84315 | 84° | 37km/h | 14613m | 4.7m/s | -48.2°C | 0.3% | 131.4hPa | 2.5V | 18:12:15 | 01:27:17 | 00:00:00 | |
| DJ2DS-15 | 2026-09-01 00:19:34 | 56.49027 | 3.84297 | 84° | 40km/h | 14608m | 3.0m/s | -48.1°C | 3.3% | 131.4hPa | 2.5V | 00:00:00 | 01:27:16 | 00:00:00 | |
| DM0DOS-11 | 2026-09-01 00:19:28 | 56.49020 | 3.84130 | 90° | 42km/h | 14564m | 4.5m/s | -48.2°C | 3.4% | 132.4hPa | 2.5V | 08:30:00 | 01:27:06 | 00:00:00 | |
| DL1XH-west | 2026-09-01 00:19:25 | 56.49020 | 3.84130 | 90° | 42km/h | 14564m | 4.5m/s | -48.3°C | 0.4% | 132.4hPa | 2.5V | 18:12:15 | 01:27:06 | 00:00:00 | |
| DM0DOS-11 | 2026-09-01 00:19:18 | 56.49020 | 3.83931 | 86° | 44km/h | 14521m | 4.2m/s | -48.4°C | 3.4% | 133.3hPa | 2.5V | 08:30:00 | 01:26:56 | 00:00:00 | |
| DL1XH-west | 2026-09-01 00:19:15 | 56.49020 | 3.83931 | 86° | 44km/h | 14521m | 4.2m/s | -48.4°C | 0.3% | 133.3hPa | 2.5V | 18:12:15 | 01:26:56 | 00:00:00 | |
| DJ2DS-15 | 2026-09-01 00:19:14 | 56.49020 | 3.83931 | 87° | 44km/h | 14521m | 4.1m/s | -48.3°C | 3.4% | 133.2hPa | 2.6V | 00:00:00 | 01:26:56 | 00:00:00 | |
| DM0DOS-11 | 2026-09-01 00:19:06 | 56.49016 | 3.83738 | 85° | 46km/h | 14477m | 4.4m/s | -48.4°C | 0% | 134.2hPa | 2.6V | 08:30:00 | 01:26:46 | 00:00:00 | |
| DL1XH-west | 2026-09-01 00:19:04 | 56.49015 | 3.83717 | 86° | 46km/h | 14473m | 4.1m/s | -48.4°C | 0.3% | 134.2hPa | 2.5V | 18:12:15 | 01:26:45 | 00:00:00 | |
| DM0DOS-11 | 2026-09-01 00:18:56 | 56.49002 | 3.83526 | 80° | 55km/h | 14435m | 3m/s | -48.5°C | 0% | 135hPa | 2.5V | 00:00:00 | 01:26:36 | 00:00:00 | |
| DL1XH-west | 2026-09-01 00:18:54 | 56.49000 | 3.83501 | 82° | 55km/h | 14431m | 4.5m/s | -48.5°C | 0.4% | 135.1hPa | 2.5V | 18:12:15 | 01:26:35 | 00:00:00 | |
| DJ2DS-15 | 2026-09-01 00:18:54 | 56.49002 | 3.83526 | 81° | 51km/h | 14435m | 3.0m/s | -48.5°C | 3.4% | 134.9hPa | 2.5V | 00:00:00 | 01:26:36 | 00:00:00 | |
| DM0DOS-11 | 2026-09-01 00:18:46 | 56.48977 | 3.83290 | 74° | 49km/h | 14394m | 3.9m/s | -48.5°C | 0% | 0hPa | 2.6V | 00:00:00 | 01:26:26 | 00:00:00 | |
| DL1XH-west | 2026-09-01 00:18:44 | 56.48974 | 3.83268 | 76° | 49km/h | 14390m | 4.9m/s | -48.5°C | 0.4% | 135.9hPa | 2.6V | 18:12:15 | 01:26:25 | 00:00:00 | |
| DM0DOS-11 | 2026-09-01 00:18:35 | 56.48950 | 3.83077 | 78° | 46km/h | 14354m | 4.2m/s | -48.6°C | 0% | 0hPa | 2.5V | 00:00:00 | 01:26:16 | 00:00:00 | |
| DL1XH-west | 2026-09-01 00:18:33 | 56.48947 | 3.83035 | 85° | 47km/h | 14345m | 3.7m/s | -48.6°C | 0.3% | 136.9hPa | 2.5V | 18:12:15 | 01:26:14 | 00:00:00 | |
| DM0DOS-11 | 2026-09-01 00:18:30 | 56.48942 | 3.82874 | 87° | 44km/h | 14311m | 4.2m/s | -49°C | 0% | 0hPa | 2.6V | 00:00:00 | 01:26:06 | 00:00:00 | |
| DL1XH-west | 2026-09-01 00:18:22 | 56.48942 | 3.82814 | 89° | 44km/h | 14299m | 3.5m/s | -49°C | 0.4% | 137.9hPa | 2.5V | 18:12:15 | 01:26:03 | 00:00:00 | |
| DM0DOS-11 | 2026-09-01 00:18:19 | 56.48941 | 3.82642 | 92° | 49km/h | 14266m | 4.2m/s | 0°C | 0% | 0hPa | 2.5V | 00:00:00 | 01:25:55 | 00:00:00 | |
| DL1XH-west | 2026-09-01 00:18:11 | 56.48943 | 3.82600 | 96° | 46km/h | 14259m | 3.3m/s | -49°C | 0.5% | 138.7hPa | 2.5V | 18:12:15 | 01:25:53 | 00:00:00 | |
| DL1XH-west | 2026-09-01 00:18:01 | 56.48948 | 3.82360 | 84° | 49km/h | 14213m | 4.4m/s | -49.1°C | 0.6% | 139.7hPa | 2.5V | 18:12:15 | 01:25:42 | 00:00:00 | |
| DL1XH-west | 2026-09-01 00:17:50 | 56.48942 | 3.82100 | 85° | 55km/h | 14168m | 4.4m/s | -49.2°C | 0.5% | 140.6hPa | 2.6V | 18:12:15 | 01:25:31 | 00:00:00 | |
| DL1XH-west | 2026-09-01 00:17:40 | 56.48940 | 3.81874 | 89° | 47km/h | 14128m | 4.8m/s | -49.3°C | 0.6% | 141.5hPa | 2.5V | 18:12:15 | 01:25:21 | 00:00:00 | |
| DL1XH-west | 2026-09-01 00:17:29 | 56.48926 | 3.81649 | 83° | 51km/h | 14088m | 3.8m/s | -49.4°C | 0.5% | 142.4hPa | 2.5V | 18:12:15 | 01:25:11 | 00:00:00 | |
| DL1XH-west | 2026-09-01 00:17:19 | 56.48919 | 3.81422 | 88° | 53km/h | 14046m | 3.2m/s | -49.6°C | 0.6% | 143.2hPa | 2.6V | 18:12:15 | 01:25:01 | 00:00:00 | |
| DL1XH-west | 2026-09-01 00:17:09 | 56.48920 | 3.81095 | 93° | 53km/h | 13996m | 3.5m/s | -49.8°C | 0.6% | 144.4hPa | 2.6V | 18:12:15 | 01:24:48 | 00:00:00 | |
| DL1XH-west | 2026-09-01 00:16:57 | 56.48915 | 3.80859 | 86° | 49km/h | 13955m | 4.4m/s | -50.2°C | 0.7% | 145.2hPa | 2.5V | 18:12:15 | 01:24:38 | 00:00:00 | |
| DL1XH-west | 2026-09-01 00:16:47 | 56.48907 | 3.80654 | 87° | 49km/h | 13919m | 3.9m/s | -50.6°C | 0.7% | 146.1hPa | 2.5V | 18:12:15 | 01:24:29 | 00:00:00 | |
| DL1XH-west | 2026-09-01 00:16:37 | 56.48894 | 3.80432 | 82° | 51km/h | 13880m | 3.6m/s | -50.7°C | 0.8% | 147hPa | 2.6V | 18:12:15 | 01:24:19 | 00:00:00 | |
| DL1XH-west | 2026-09-01 00:16:27 | 56.48882 | 3.80206 | 87° | 44km/h | 13841m | 3.6m/s | -51.1°C | 0.8% | 147.8hPa | 2.5V | 18:12:15 | 01:24:09 | 00:00:00 | |
| DL1XH-west | 2026-09-01 00:16:17 | 56.48863 | 3.79985 | 78° | 47km/h | 13802m | 3.1m/s | -51.2°C | 0.9% | 148.7hPa | 2.6V | 18:12:15 | 01:23:59 | 00:00:00 | |
| DL1XH-west | 2026-09-01 00:16:06 | 56.48834 | 3.79766 | 74° | 47km/h | 13759m | 4.5m/s | -51°C | 0.9% | 149.7hPa | 2.5V | 18:12:15 | 01:23:48 | 00:00:00 | |
| DL1XH-west | 2026-09-01 00:15:56 | 56.48810 | 3.79574 | 82° | 38km/h | 13721m | 3m/s | -50.7°C | 0.8% | 150.6hPa | 2.6V | 18:12:15 | 01:23:38 | 00:00:00 | |
| DL1XH-west | 2026-09-01 00:15:45 | 56.48793 | 3.79366 | 80° | 42km/h | 13676m | 4.8m/s | -50.3°C | 0.8% | 151.6hPa | 2.5V | 18:12:15 | 01:23:27 | 00:00:00 | |
| DL1XH-west | 2026-09-01 00:15:35 | 56.48779 | 3.79182 | 83° | 38km/h | 13634m | 4.7m/s | -49.9°C | 0.8% | 152.6hPa | 2.6V | 18:12:15 | 01:23:17 | 00:00:00 | |
| DL1XH-west | 2026-09-01 00:15:24 | 56.48764 | 3.78980 | 85° | 37km/h | 13590m | 5m/s | -49.6°C | 0.8% | 153.7hPa | 2.5V | 18:12:15 | 01:23:06 | 00:00:00 | |
| DL1XH-west | 2026-09-01 00:15:14 | 56.48758 | 3.78802 | 83° | 33km/h | 13545m | 5.3m/s | -49.3°C | 0.9% | 154.7hPa | 2.6V | 18:12:15 | 01:22:56 | 00:00:00 | |
| DL1XH-west | 2026-09-01 00:15:04 | 56.48759 | 3.78632 | 98° | 46km/h | 13500m | 5.8m/s | -49.5°C | 0.9% | 155.8hPa | 2.5V | 18:12:15 | 01:22:46 | 00:00:00 | |
| DL1XH-west | 2026-09-01 00:14:53 | 56.48769 | 3.78382 | 93° | 51km/h | 13449m | 4m/s | -50°C | 1% | 157hPa | 2.6V | 18:12:15 | 01:22:35 | 00:00:00 | |
| DL1XH-west | 2026-09-01 00:14:43 | 56.48781 | 3.78155 | 90° | 51km/h | 13409m | 3.7m/s | -49.9°C | 1.1% | 158hPa | 2.5V | 18:12:15 | 01:22:25 | 00:00:00 | |
| DL1XH-west | 2026-09-01 00:14:32 | 56.48785 | 3.77874 | 91° | 57km/h | 13362m | 4.7m/s | -50°C | 1.2% | 159.1hPa | 2.5V | 18:12:15 | 01:22:14 | 00:00:00 | |
| DL1XH-west | 2026-09-01 00:14:22 | 56.48792 | 3.77630 | 96° | 58km/h | 13319m | 4.3m/s | -50.1°C | 1.3% | 160.1hPa | 2.6V | 18:12:15 | 01:22:04 | 00:00:00 | |
| DL1XH-west | 2026-09-01 00:14:11 | 56.48798 | 3.77332 | 91° | 57km/h | 13274m | 3.7m/s | -50.4°C | 1.4% | 161.3hPa | 2.5V | 18:12:15 | 01:21:53 | 00:00:00 | |
| DL1XH-west | 2026-09-01 00:14:00 | 56.48793 | 3.77050 | 86° | 57km/h | 13227m | 5.3m/s | -50.3°C | 1.5% | 162.5hPa | 2.5V | 18:12:15 | 01:21:42 | 00:00:00 | |
| DL1XH-west | 2026-09-01 00:13:50 | 56.48790 | 3.76806 | 87° | 53km/h | 13186m | 4.3m/s | -50.7°C | 1.7% | 163.5hPa | 2.5V | 18:12:15 | 01:21:32 | 00:00:00 | |
| DL1XH-west | 2026-09-01 00:13:40 | 56.48775 | 3.76554 | 83° | 55km/h | 13143m | 4.7m/s | -51°C | 1.8% | 164.6hPa | 2.6V | 18:12:15 | 01:21:22 | 00:00:00 | |
| DL1XH-west | 2026-09-01 00:13:29 | 56.48754 | 3.76288 | 78° | 49km/h | 13097m | 4.5m/s | -51.5°C | 1.9% | 165.8hPa | 2.5V | 18:12:15 | 01:21:11 | 00:00:00 | |
| DL1XH-west | 2026-09-01 00:13:19 | 56.48731 | 3.76074 | 80° | 49km/h | 13053m | 4.9m/s | -51.8°C | 1.8% | 166.9hPa | 2.6V | 18:12:15 | 01:21:01 | 00:00:00 | |
| DL1XH-west | 2026-09-01 00:13:08 | 56.48703 | 3.75836 | 78° | 46km/h | 13005m | 4.2m/s | -51.5°C | 1.4% | 168.1hPa | 2.5V | 18:12:15 | 01:20:50 | 00:00:00 | |
| DL1XH-west | 2026-09-01 00:12:59 | 56.48689 | 3.75640 | 83° | 46km/h | 12962m | 3.8m/s | -51.3°C | 1.3% | 169.3hPa | 2.6V | 18:12:15 | 01:20:40 | 00:00:00 | |
| DL1XH-west | 2026-09-01 00:12:47 | 56.48682 | 3.75423 | 90° | 44km/h | 12915m | 3.8m/s | -51.1°C | 1.3% | 170.5hPa | 2.5V | 18:12:15 | 01:20:29 | 00:00:00 | |
| DL1XH-west | 2026-09-01 00:12:36 | 56.48681 | 3.75200 | 93° | 47km/h | 12869m | 4.5m/s | -50.8°C | 1.1% | 171.7hPa | 2.6V | 18:12:15 | 01:20:18 | 00:00:00 | |
| DL1XH-west | 2026-09-01 00:12:26 | 56.48684 | 3.74986 | 92° | 49km/h | 12826m | 3.8m/s | -51°C | 1.3% | 172.9hPa | 2.5V | 18:12:15 | 01:20:08 | 00:00:00 | |
| DL1XH-west | 2026-09-01 00:12:16 | 56.48747 | 3.74766 | 32° | 210km/h | 12898m | 109.7m/s | -51°C | 1.3% | 174hPa | 2.7V | 18:12:15 | 01:19:58 | 00:00:00 | |
| DL1XH-west | 2026-09-01 00:12:05 | 56.48699 | 3.74465 | 92° | 51km/h | 12736m | 4.8m/s | -50.8°C | 1.4% | 175.3hPa | 2.6V | 18:12:15 | 01:19:47 | 00:00:00 | |
| DL1XH-west | 2026-09-01 00:11:54 | 56.48702 | 3.74207 | 92° | 47km/h | 12691m | 3.9m/s | -51.2°C | 1.7% | 176.4hPa | 2.5V | 18:12:15 | 01:19:36 | 00:00:00 | |
| DL1XH-west | 2026-09-01 00:11:44 | 56.48701 | 3.73982 | 89° | 47km/h | 12649m | 5m/s | -51.2°C | 1.9% | 177.6hPa | 2.6V | 18:12:15 | 01:19:26 | 00:00:00 | |
| DL1XH-west | 2026-09-01 00:11:33 | 56.48703 | 3.73768 | 83° | 40km/h | 12602m | 2.6m/s | -51.4°C | 2.3% | 179hPa | 2.5V | 18:12:15 | 01:19:15 | 00:00:00 | |
| DL1XH-west | 2026-09-01 00:11:22 | 56.48700 | 3.73590 | 94° | 35km/h | 12557m | 5m/s | 0°C | 0% | 180.1hPa | 2.5V | 18:12:15 | 01:19:04 | 00:00:00 | |
| DL1XH-west | 2026-09-01 00:11:11 | 56.48709 | 3.73389 | 95° | 42km/h | 12510m | 4m/s | 0°C | 0% | 0hPa | 2.5V | 18:12:15 | 01:18:53 | 00:00:00 | |
| DL1XH-west | 2026-09-01 00:11:01 | 56.48713 | 3.73181 | 91° | 49km/h | 12470m | 3.4m/s | 0°C | 0% | 0hPa | 2.6V | 18:12:15 | 01:18:43 | 00:00:00 | |
| DL1XH-west | 2026-09-01 00:10:50 | 56.48715 | 3.72913 | 92° | 53km/h | 12424m | 3.7m/s | 0°C | 0% | 0hPa | 2.5V | 18:12:15 | 01:18:32 | 00:00:00 | |
| DL1XH-west | 2026-09-01 00:10:31 | 56.48723 | 3.72424 | 94° | 58km/h | 12342m | 4.7m/s | 0°C | 0% | 0hPa | 2.6V | 18:12:15 | 01:18:12 | 00:00:00 | |
| DL1XH-west | 2026-09-01 00:10:20 | 56.48723 | 3.72152 | 90° | 47km/h | 12299m | 3.3m/s | 0°C | 0% | 0hPa | 2.5V | 18:12:15 | 01:18:01 | 00:00:00 | |
| DL1XH-west | 2026-09-01 00:10:04 | 56.48736 | 3.71803 | 89° | 51km/h | 12238m | 3.4m/s | 0°C | 0% | 0hPa | 2.6V | 18:12:15 | 01:17:46 | 00:00:00 | |
| DJ2DS-15 | 2026-09-01 00:09:53 | 56.48739 | 3.71525 | 92° | 51km/h | 12191m | 3.7m/s | -53.1°C | 7.6% | 190.6hPa | 2.5V | 00:00:00 | 01:17:35 | 00:00:00 | |
| DJ2DS-15 | 2026-09-01 00:09:33 | 56.48766 | 3.71061 | 98° | 51km/h | 12112m | 4.5m/s | -53.4°C | 9.6% | 193.0hPa | 2.5V | 00:00:00 | 01:17:15 | 00:00:00 | |
| DJ2DS-15 | 2026-09-01 00:09:13 | 56.48798 | 3.70600 | 99° | 60km/h | 12030m | 4.8m/s | -53.8°C | 14.2% | 195.4hPa | 2.5V | 00:00:00 | 01:16:55 | 00:00:00 | |
| DJ2DS-15 | 2026-09-01 00:09:08 | 56.48810 | 3.70473 | 99° | 58km/h | 12009m | 4.3m/s | -54.4°C | 12.0% | 196.1hPa | 2.5V | 00:00:00 | 00:00:00 | 00:00:00 | |
| DJ2DS-15 | 2026-09-01 00:08:53 | 56.48855 | 3.70052 | 103° | 62km/h | 11948m | 3.5m/s | -56.2°C | 23.6% | 198.0hPa | 2.5V | 00:00:00 | 01:16:35 | 00:00:00 | |
| DJ2DS-15 | 2026-09-01 00:08:33 | 56.48907 | 3.69487 | 102° | 69km/h | 11866m | 6.1m/s | -56.2°C | 29.6% | 200.5hPa | 2.7V | 00:00:00 | 01:16:15 | 00:00:00 | |
| DJ2DS-15 | 2026-09-01 00:08:13 | 56.48972 | 3.68866 | 100° | 71km/h | 11768m | 3.5m/s | -57.2°C | 37.1% | 203.7hPa | 2.7V | 00:00:00 | 01:15:55 | 00:00:00 | |
| DJ2DS-15 | 2026-09-01 00:07:56 | 56.49017 | 3.68317 | 98° | 66km/h | 11695m | 4.1m/s | -57.2°C | 32.0% | 206.1hPa | 2.7V | 00:00:00 | 00:00:00 | 00:00:00 | |
| DJ2DS-15 | 2026-09-01 00:07:53 | 56.49023 | 3.68231 | 99° | 60km/h | 11681m | 5.1m/s | -57.1°C | 40.9% | 206.5hPa | 2.7V | 00:00:00 | 01:15:35 | 08:30:00 | |
| DJ2DS-15 | 2026-09-01 00:07:33 | 56.49075 | 3.67685 | 98° | 68km/h | 11599m | 4.3m/s | -58.5°C | 52.4% | 209.2hPa | 2.7V | 00:00:00 | 01:15:15 | 00:00:00 | |
| DJ2DS-15 | 2026-09-01 00:07:13 | 56.49132 | 3.67077 | 97° | 73km/h | 11513m | 4.1m/s | -58.6°C | 53.9% | 212.1hPa | 2.7V | 00:00:00 | 01:14:55 | 00:00:00 | |
| DJ2DS-15 | 2026-09-01 00:06:53 | 56.49178 | 3.66409 | 97° | 71km/h | 11434m | 4.4m/s | -58.9°C | 57.4% | 214.8hPa | 2.7V | 00:00:00 | 01:14:35 | 00:00:00 | |
| DJ2DS-15 | 2026-09-01 00:06:34 | 56.49235 | 3.65764 | 102° | 69km/h | 11353m | 3.8m/s | -58.6°C | 0% | 217.6hPa | 0V | 00:00:00 | 01:14:15 | 00:00:00 | |
| DJ2DS-15 | 2026-09-01 00:06:13 | 56.49300 | 3.65139 | 100° | 68km/h | 11273m | 4.2m/s | 0°C | 0% | 0hPa | 0V | 00:00:00 | 01:13:55 | 00:00:00 | |
| DJ2DS-15 | 2026-09-01 00:05:53 | 56.49362 | 3.64527 | 102° | 66km/h | 11193m | 3.3m/s | 0°C | 0% | 0hPa | 0V | 00:00:00 | 01:13:35 | 00:00:00 | |
| DJ2DS-15 | 2026-09-01 00:05:34 | 56.49432 | 3.63948 | 105° | 64km/h | 11111m | 4.8m/s | 0°C | 0% | 0hPa | 0V | 00:00:00 | 01:13:15 | 00:00:00 | |
| DJ2DS-15 | 2026-09-01 00:05:32 | 56.49441 | 3.63891 | 103° | 64km/h | 11103m | 4.0m/s | -58.1°C | 70.3% | 226.4hPa | 0V | 00:00:00 | 00:00:00 | 00:00:00 | |
| DJ2DS-15 | 2026-09-01 00:05:13 | 56.49493 | 3.63366 | 99° | 64km/h | 11031m | 4.0m/s | 0°C | 0% | 0hPa | 0V | 00:00:00 | 01:12:55 | 00:00:00 | |
| DJ2DS-15 | 2026-09-01 00:04:56 | 56.49551 | 3.62851 | 103° | 62km/h | 10961m | 4.2m/s | 0°C | -1.0% | 231.6hPa | 0V | 00:00:00 | 00:00:00 | 00:00:00 |